PWSweather.com
Personal Weather Stations
Station Observations
DL5ARK
SonnebergDE

SonnebergDE

Lat: 50.34904861, Lon: 11.18112087

Elevation: 1214

Station Type: Selfmade

http://www.sumbarg.de

High Low Average
Temperature 38.3°F3.5°C 33.2°F0.7°C 36.2°F2.3°C
Dew Point 41.1°F5.1°C 37.7°F3.2°C 39.5°F4.2°C
Winds 8.4 mph 13.5 kmh Calm Calm 2.0 mph WSW3.2 kmh WSW
Wind Gusts 8.4 mph13.5 kmh -- 2.0 mph3.2 kmh
Humidity 90% 83% 88%
Pressure 29.96 in1014.6 mb 29.79 in1008.8 mb -
Precipitation 0.12 in3.0 mm - -
Hour Temp Dew Point Humidity Winds Wind Gusts Pressure Precip Precip Rate Daily Precip Total
12:00 AM 34.7°F1.5°C 38.6°F3.7°C 87% Calm Calm -- 29.87 in1011.5 mb 0.00 in0.0 mm 0.00 in0.0 mm 0.00 in0.0 mm
12:03 AM 34.7°F1.5°C 38.5°F3.6°C 87% Calm Calm -- 29.87 in1011.5 mb 0.00 in0.0 mm 0.00 in0.0 mm 0.00 in0.0 mm
12:06 AM 34.6°F1.4°C 38.6°F3.7°C 87% Calm Calm -- 29.87 in1011.5 mb 0.00 in0.0 mm 0.00 in0.0 mm 0.00 in0.0 mm
12:09 AM 34.7°F1.5°C 38.6°F3.7°C 87% Calm Calm -- 29.87 in1011.5 mb 0.00 in0.0 mm 0.00 in0.0 mm 0.00 in0.0 mm
12:12 AM 34.6°F1.4°C 38.8°F3.8°C 87% Calm Calm -- 29.87 in1011.5 mb 0.00 in0.0 mm 0.00 in0.0 mm 0.00 in0.0 mm
12:15 AM 34.6°F1.4°C 38.1°F3.4°C 86% Calm Calm -- 29.87 in1011.5 mb 0.00 in0.0 mm 0.00 in0.0 mm 0.00 in0.0 mm
12:18 AM 34.5°F1.4°C 38.6°F3.7°C 87% Calm Calm -- 29.86 in1011.2 mb 0.00 in0.0 mm 0.00 in0.0 mm 0.00 in0.0 mm
12:21 AM 34.5°F1.4°C 38.5°F3.6°C 87% Calm Calm -- 29.86 in1011.2 mb 0.00 in0.0 mm 0.00 in0.0 mm 0.00 in0.0 mm
12:24 AM 34.5°F1.4°C 38.5°F3.6°C 87% Calm Calm -- 29.86 in1011.2 mb 0.00 in0.0 mm 0.00 in0.0 mm 0.00 in0.0 mm
12:27 AM 34.5°F1.4°C 38.6°F3.7°C 87% Calm Calm -- 29.86 in1011.2 mb 0.00 in0.0 mm 0.00 in0.0 mm 0.00 in0.0 mm
12:30 AM 34.5°F1.4°C 38.7°F3.7°C 87% Calm Calm -- 29.86 in1011.2 mb 0.00 in0.0 mm 0.00 in0.0 mm 0.00 in0.0 mm
12:33 AM 34.5°F1.4°C 38.6°F3.7°C 87% Calm Calm -- 29.86 in1011.2 mb 0.00 in0.0 mm 0.00 in0.0 mm 0.00 in0.0 mm
12:36 AM 34.5°F1.4°C 38.6°F3.7°C 88% Calm Calm -- 29.86 in1011.2 mb 0.00 in0.0 mm 0.00 in0.0 mm 0.00 in0.0 mm
12:39 AM 34.6°F1.4°C 38.7°F3.7°C 88% Calm Calm -- 29.86 in1011.2 mb 0.00 in0.0 mm 0.00 in0.0 mm 0.00 in0.0 mm
12:42 AM 34.7°F1.5°C 38.5°F3.6°C 88% 1.1 mph 1.8 kmh 1.1 mph1.8 kmh 29.86 in1011.2 mb 0.00 in0.0 mm 0.00 in0.0 mm 0.00 in0.0 mm
12:45 AM 34.7°F1.5°C 38.5°F3.6°C 88% Calm Calm -- 29.86 in1011.2 mb 0.00 in0.0 mm 0.00 in0.0 mm 0.00 in0.0 mm
12:48 AM 34.8°F1.6°C 38.4°F3.6°C 88% Calm Calm -- 29.86 in1011.2 mb 0.00 in0.0 mm 0.00 in0.0 mm 0.00 in0.0 mm
12:51 AM 34.7°F1.5°C 38.5°F3.6°C 88% Calm Calm -- 29.85 in1010.8 mb 0.00 in0.0 mm 0.00 in0.0 mm 0.00 in0.0 mm
12:54 AM 34.8°F1.6°C 38.7°F3.7°C 88% 0.4 mph NNW0.6 kmh NNW 0.4 mph0.6 kmh 29.86 in1011.2 mb 0.00 in0.0 mm 0.00 in0.0 mm 0.00 in0.0 mm
12:57 AM 34.7°F1.5°C 38.6°F3.7°C 88% Calm Calm -- 29.86 in1011.2 mb 0.00 in0.0 mm 0.00 in0.0 mm 0.00 in0.0 mm
01:00 AM 34.8°F1.6°C 38.7°F3.7°C 88% 1.2 mph NNW1.9 kmh NNW 1.2 mph1.9 kmh 29.85 in1010.8 mb 0.00 in0.0 mm 0.00 in0.0 mm 0.00 in0.0 mm
01:03 AM 34.8°F1.6°C 38.5°F3.6°C 88% Calm Calm -- 29.86 in1011.2 mb 0.00 in0.0 mm 0.00 in0.0 mm 0.00 in0.0 mm
01:06 AM 34.8°F1.6°C 38.5°F3.6°C 88% 2.0 mph NW3.2 kmh NW 2.0 mph3.2 kmh 29.84 in1010.5 mb 0.00 in0.0 mm 0.00 in0.0 mm 0.00 in0.0 mm
01:09 AM 34.8°F1.6°C 38.8°F3.8°C 88% 1.9 mph NNW3.1 kmh NNW 2.0 mph3.2 kmh 29.84 in1010.5 mb 0.00 in0.0 mm 0.00 in0.0 mm 0.00 in0.0 mm
01:12 AM 34.8°F1.6°C 38.5°F3.6°C 88% Calm Calm -- 29.84 in1010.5 mb 0.00 in0.0 mm 0.00 in0.0 mm 0.00 in0.0 mm
01:15 AM 34.8°F1.6°C 38.8°F3.8°C 88% 2.4 mph NNW3.9 kmh NNW 2.4 mph3.9 kmh 29.84 in1010.5 mb 0.00 in0.0 mm 0.00 in0.0 mm 0.00 in0.0 mm
01:18 AM 34.8°F1.6°C 38.7°F3.7°C 88% 1.6 mph NNW2.6 kmh NNW 1.6 mph2.6 kmh 29.84 in1010.5 mb 0.00 in0.0 mm 0.00 in0.0 mm 0.00 in0.0 mm
01:21 AM 34.8°F1.6°C 38.6°F3.7°C 88% Calm Calm -- 29.84 in1010.5 mb 0.00 in0.0 mm 0.00 in0.0 mm 0.00 in0.0 mm
01:24 AM 34.8°F1.6°C 38.7°F3.7°C 88% 2.4 mph NNW3.9 kmh NNW 2.4 mph3.9 kmh 29.84 in1010.5 mb 0.00 in0.0 mm 0.00 in0.0 mm 0.00 in0.0 mm
01:27 AM 34.7°F1.5°C 38.5°F3.6°C 88% 0.8 mph NNW1.3 kmh NNW 0.8 mph1.3 kmh 29.84 in1010.5 mb 0.00 in0.0 mm 0.00 in0.0 mm 0.02 in0.5 mm
01:30 AM 34.7°F1.5°C 38.5°F3.6°C 89% 2.8 mph NW4.5 kmh NW 2.9 mph4.7 kmh 29.84 in1010.5 mb 0.00 in0.0 mm 0.00 in0.0 mm 0.02 in0.5 mm
01:33 AM 34.7°F1.5°C 38.5°F3.6°C 88% 1.6 mph NNW2.6 kmh NNW 1.6 mph2.6 kmh 29.84 in1010.5 mb 0.00 in0.0 mm 0.00 in0.0 mm 0.02 in0.5 mm
01:36 AM 34.7°F1.5°C 38.6°F3.7°C 89% Calm Calm -- 29.84 in1010.5 mb 0.00 in0.0 mm 0.00 in0.0 mm 0.02 in0.5 mm
01:39 AM 34.7°F1.5°C 38.7°F3.7°C 89% Calm Calm -- 29.84 in1010.5 mb 0.00 in0.0 mm 0.00 in0.0 mm 0.02 in0.5 mm
01:42 AM 34.6°F1.4°C 38.7°F3.7°C 89% Calm Calm -- 29.84 in1010.5 mb 0.00 in0.0 mm 0.00 in0.0 mm 0.02 in0.5 mm
01:45 AM 34.7°F1.5°C 38.3°F3.5°C 87% Calm Calm -- 29.84 in1010.5 mb 0.00 in0.0 mm 0.00 in0.0 mm 0.02 in0.5 mm
01:48 AM 34.6°F1.4°C 38.5°F3.6°C 88% 2.0 mph NNW3.2 kmh NNW 2.0 mph3.2 kmh 29.84 in1010.5 mb 0.00 in0.0 mm 0.00 in0.0 mm 0.02 in0.5 mm
01:51 AM 34.7°F1.5°C 38.6°F3.7°C 89% 0.8 mph NW1.3 kmh NW 0.8 mph1.3 kmh 29.84 in1010.5 mb 0.00 in0.0 mm 0.00 in0.0 mm 0.02 in0.5 mm
01:54 AM 34.7°F1.5°C 38.7°F3.7°C 89% 4.0 mph WNW6.4 kmh WNW 4.1 mph6.6 kmh 29.83 in1010.2 mb 0.00 in0.0 mm 0.00 in0.0 mm 0.02 in0.5 mm
01:57 AM 34.7°F1.5°C 38.8°F3.8°C 89% Calm Calm -- 29.84 in1010.5 mb 0.00 in0.0 mm 0.00 in0.0 mm 0.02 in0.5 mm
02:00 AM 34.6°F1.4°C 38.5°F3.6°C 88% Calm Calm -- 29.84 in1010.5 mb 0.00 in0.0 mm 0.00 in0.0 mm 0.02 in0.5 mm
02:03 AM 34.5°F1.4°C 38.4°F3.6°C 88% Calm Calm -- 29.84 in1010.5 mb 0.00 in0.0 mm 0.00 in0.0 mm 0.02 in0.5 mm
02:06 AM 34.5°F1.4°C 38.7°F3.7°C 89% 0.8 mph NNW1.3 kmh NNW 0.8 mph1.3 kmh 29.84 in1010.5 mb 0.00 in0.0 mm 0.00 in0.0 mm 0.02 in0.5 mm
02:09 AM 34.4°F1.3°C 38.5°F3.6°C 88% Calm Calm -- 29.84 in1010.5 mb 0.00 in0.0 mm 0.00 in0.0 mm 0.02 in0.5 mm
02:12 AM 34.4°F1.3°C 38.4°F3.6°C 88% Calm Calm -- 29.84 in1010.5 mb 0.00 in0.0 mm 0.00 in0.0 mm 0.02 in0.5 mm
02:15 AM 34.4°F1.3°C 38.6°F3.7°C 88% Calm Calm -- 29.83 in1010.2 mb 0.00 in0.0 mm 0.00 in0.0 mm 0.02 in0.5 mm
02:18 AM 34.5°F1.4°C 38.8°F3.8°C 89% Calm Calm -- 29.83 in1010.2 mb 0.00 in0.0 mm 0.00 in0.0 mm 0.02 in0.5 mm
02:21 AM 34.5°F1.4°C 38.7°F3.7°C 89% Calm Calm -- 29.83 in1010.2 mb 0.00 in0.0 mm 0.00 in0.0 mm 0.02 in0.5 mm
02:24 AM 34.4°F1.3°C 38.7°F3.7°C 89% Calm Calm -- 29.83 in1010.2 mb 0.00 in0.0 mm 0.00 in0.0 mm 0.02 in0.5 mm
02:27 AM 34.4°F1.3°C 38.8°F3.8°C 89% Calm Calm -- 29.83 in1010.2 mb 0.00 in0.0 mm 0.00 in0.0 mm 0.02 in0.5 mm
02:30 AM 34.5°F1.4°C 38.7°F3.7°C 88% Calm Calm -- 29.83 in1010.2 mb 0.00 in0.0 mm 0.00 in0.0 mm 0.02 in0.5 mm
02:31 AM 34.4°F1.3°C 38.5°F3.6°C 89% Calm Calm -- 29.83 in1010.2 mb 0.00 in0.0 mm 0.00 in0.0 mm 0.02 in0.5 mm
02:34 AM 34.5°F1.4°C 38.7°F3.7°C 89% Calm Calm -- 29.82 in1009.8 mb 0.00 in0.0 mm 0.00 in0.0 mm 0.02 in0.5 mm
02:37 AM 34.5°F1.4°C 38.6°F3.7°C 88% Calm Calm -- 29.82 in1009.8 mb 0.00 in0.0 mm 0.00 in0.0 mm 0.02 in0.5 mm
02:40 AM 34.5°F1.4°C 38.5°F3.6°C 89% Calm Calm -- 29.82 in1009.8 mb 0.00 in0.0 mm 0.00 in0.0 mm 0.02 in0.5 mm
02:43 AM 34.5°F1.4°C 38.5°F3.6°C 88% Calm Calm -- 29.82 in1009.8 mb 0.00 in0.0 mm 0.00 in0.0 mm 0.04 in1.0 mm
02:46 AM 34.6°F1.4°C 38.8°F3.8°C 89% Calm Calm -- 29.81 in1009.5 mb 0.00 in0.0 mm 0.00 in0.0 mm 0.04 in1.0 mm
02:49 AM 34.5°F1.4°C 38.5°F3.6°C 88% Calm Calm -- 29.81 in1009.5 mb 0.00 in0.0 mm 0.00 in0.0 mm 0.04 in1.0 mm
02:52 AM 34.4°F1.3°C 38.4°F3.6°C 88% Calm Calm -- 29.81 in1009.5 mb 0.00 in0.0 mm 0.00 in0.0 mm 0.04 in1.0 mm
02:55 AM 34.5°F1.4°C 38.3°F3.5°C 88% 1.6 mph NW2.6 kmh NW 1.6 mph2.6 kmh 29.81 in1009.5 mb 0.00 in0.0 mm 0.00 in0.0 mm 0.04 in1.0 mm
02:58 AM 34.4°F1.3°C 38.5°F3.6°C 89% 0.8 mph NW1.3 kmh NW 0.8 mph1.3 kmh 29.81 in1009.5 mb 0.00 in0.0 mm 0.00 in0.0 mm 0.04 in1.0 mm
03:01 AM 34.4°F1.3°C 38.3°F3.5°C 89% 2.0 mph NW3.2 kmh NW 2.0 mph3.2 kmh 29.81 in1009.5 mb 0.00 in0.0 mm 0.00 in0.0 mm 0.04 in1.0 mm
03:04 AM 34.4°F1.3°C 38.4°F3.6°C 89% 1.2 mph WNW1.9 kmh WNW 1.2 mph1.9 kmh 29.81 in1009.5 mb 0.00 in0.0 mm 0.00 in0.0 mm 0.04 in1.0 mm
03:07 AM 34.3°F1.3°C 38.4°F3.6°C 89% 0.8 mph WNW1.3 kmh WNW 0.8 mph1.3 kmh 29.81 in1009.5 mb 0.00 in0.0 mm 0.00 in0.0 mm 0.04 in1.0 mm
03:10 AM 34.3°F1.3°C 38.3°F3.5°C 89% 1.2 mph NW1.9 kmh NW 1.2 mph1.9 kmh 29.81 in1009.5 mb 0.00 in0.0 mm 0.00 in0.0 mm 0.04 in1.0 mm
03:13 AM 34.3°F1.3°C 38.2°F3.4°C 89% Calm Calm -- 29.81 in1009.5 mb 0.00 in0.0 mm 0.00 in0.0 mm 0.04 in1.0 mm
03:16 AM 34.1°F1.2°C 38.3°F3.5°C 89% Calm Calm -- 29.81 in1009.5 mb 0.00 in0.0 mm 0.00 in0.0 mm 0.04 in1.0 mm
03:19 AM 33.9°F1.1°C 38.3°F3.5°C 89% 0.8 mph W1.3 kmh W 0.8 mph1.3 kmh 29.81 in1009.5 mb 0.00 in0.0 mm 0.00 in0.0 mm 0.04 in1.0 mm
03:22 AM 33.9°F1.1°C 38.3°F3.5°C 88% 2.8 mph WNW4.5 kmh WNW 2.9 mph4.7 kmh 29.81 in1009.5 mb 0.00 in0.0 mm 0.00 in0.0 mm 0.04 in1.0 mm
03:25 AM 33.9°F1.1°C 38.1°F3.4°C 88% Calm Calm -- 29.81 in1009.5 mb 0.00 in0.0 mm 0.00 in0.0 mm 0.04 in1.0 mm
03:28 AM 33.9°F1.1°C 38.1°F3.4°C 88% 1.2 mph NW1.9 kmh NW 1.2 mph1.9 kmh 29.81 in1009.5 mb 0.00 in0.0 mm 0.00 in0.0 mm 0.04 in1.0 mm
03:31 AM 33.9°F1.1°C 38.2°F3.4°C 89% 0.4 mph NW0.6 kmh NW 0.4 mph0.6 kmh 29.80 in1009.1 mb 0.00 in0.0 mm 0.00 in0.0 mm 0.06 in1.5 mm
03:34 AM 33.8°F1.0°C 38.1°F3.4°C 88% 0.4 mph NW0.6 kmh NW 0.4 mph0.6 kmh 29.80 in1009.1 mb 0.00 in0.0 mm 0.00 in0.0 mm 0.06 in1.5 mm
03:37 AM 33.8°F1.0°C 37.9°F3.3°C 88% Calm Calm -- 29.80 in1009.1 mb 0.00 in0.0 mm 0.00 in0.0 mm 0.06 in1.5 mm
03:40 AM 33.9°F1.1°C 38.0°F3.3°C 88% 2.0 mph NW3.2 kmh NW 2.0 mph3.2 kmh 29.80 in1009.1 mb 0.00 in0.0 mm 0.00 in0.0 mm 0.06 in1.5 mm
03:43 AM 34.0°F1.1°C 38.0°F3.3°C 88% Calm Calm -- 29.80 in1009.1 mb 0.00 in0.0 mm 0.00 in0.0 mm 0.06 in1.5 mm
03:46 AM 34.0°F1.1°C 38.2°F3.4°C 89% Calm Calm -- 29.80 in1009.1 mb 0.00 in0.0 mm 0.00 in0.0 mm 0.06 in1.5 mm
03:49 AM 34.0°F1.1°C 38.1°F3.4°C 89% Calm Calm -- 29.80 in1009.1 mb 0.00 in0.0 mm 0.00 in0.0 mm 0.06 in1.5 mm
03:52 AM 34.0°F1.1°C 38.0°F3.3°C 89% Calm Calm -- 29.80 in1009.1 mb 0.00 in0.0 mm 0.00 in0.0 mm 0.06 in1.5 mm
03:55 AM 34.0°F1.1°C 38.1°F3.4°C 89% 2.0 mph NNW3.2 kmh NNW 2.0 mph3.2 kmh 29.80 in1009.1 mb 0.00 in0.0 mm 0.00 in0.0 mm 0.06 in1.5 mm
03:58 AM 34.1°F1.2°C 38.1°F3.4°C 89% Calm Calm -- 29.80 in1009.1 mb 0.00 in0.0 mm 0.00 in0.0 mm 0.06 in1.5 mm
04:01 AM 34.1°F1.2°C 38.1°F3.4°C 89% Calm Calm -- 29.80 in1009.1 mb 0.00 in0.0 mm 0.00 in0.0 mm 0.06 in1.5 mm
04:04 AM 34.1°F1.2°C 38.1°F3.4°C 89% Calm Calm -- 29.80 in1009.1 mb 0.00 in0.0 mm 0.00 in0.0 mm 0.06 in1.5 mm
04:07 AM 34.0°F1.1°C 38.3°F3.5°C 89% Calm Calm -- 29.80 in1009.1 mb 0.00 in0.0 mm 0.00 in0.0 mm 0.06 in1.5 mm
04:10 AM 34.3°F1.3°C 38.6°F3.7°C 89% Calm Calm -- 29.80 in1009.1 mb 0.00 in0.0 mm 0.00 in0.0 mm 0.06 in1.5 mm
04:13 AM 34.1°F1.2°C 38.3°F3.5°C 89% 2.4 mph 3.9 kmh 2.4 mph3.9 kmh 29.80 in1009.1 mb 0.00 in0.0 mm 0.00 in0.0 mm 0.06 in1.5 mm
04:16 AM 34.3°F1.3°C 38.3°F3.5°C 89% 0.8 mph W1.3 kmh W 0.8 mph1.3 kmh 29.80 in1009.1 mb 0.00 in0.0 mm 0.00 in0.0 mm 0.06 in1.5 mm
04:19 AM 34.1°F1.2°C 38.2°F3.4°C 89% Calm Calm -- 29.80 in1009.1 mb 0.00 in0.0 mm 0.00 in0.0 mm 0.06 in1.5 mm
04:22 AM 34.3°F1.3°C 38.4°F3.6°C 89% Calm Calm -- 29.80 in1009.1 mb 0.00 in0.0 mm 0.00 in0.0 mm 0.06 in1.5 mm
04:25 AM 34.1°F1.2°C 38.3°F3.5°C 90% Calm Calm -- 29.80 in1009.1 mb 0.00 in0.0 mm 0.00 in0.0 mm 0.06 in1.5 mm
04:28 AM 34.3°F1.3°C 38.5°F3.6°C 89% Calm Calm -- 29.80 in1009.1 mb 0.00 in0.0 mm 0.00 in0.0 mm 0.06 in1.5 mm
04:31 AM 34.4°F1.3°C 38.5°F3.6°C 90% Calm Calm -- 29.79 in1008.8 mb 0.00 in0.0 mm 0.00 in0.0 mm 0.06 in1.5 mm
04:34 AM 34.3°F1.3°C 38.3°F3.5°C 89% Calm Calm -- 29.79 in1008.8 mb 0.00 in0.0 mm 0.00 in0.0 mm 0.06 in1.5 mm
04:37 AM 34.3°F1.3°C 38.2°F3.4°C 89% Calm Calm -- 29.79 in1008.8 mb 0.00 in0.0 mm 0.00 in0.0 mm 0.06 in1.5 mm
04:40 AM 34.4°F1.3°C 38.5°F3.6°C 90% Calm Calm -- 29.80 in1009.1 mb 0.00 in0.0 mm 0.00 in0.0 mm 0.06 in1.5 mm
04:43 AM 34.4°F1.3°C 38.3°F3.5°C 90% Calm Calm -- 29.80 in1009.1 mb 0.00 in0.0 mm 0.00 in0.0 mm 0.06 in1.5 mm
04:46 AM 34.3°F1.3°C 38.7°F3.7°C 90% Calm Calm -- 29.80 in1009.1 mb 0.00 in0.0 mm 0.00 in0.0 mm 0.06 in1.5 mm
04:49 AM 34.3°F1.3°C 38.5°F3.6°C 90% Calm Calm -- 29.80 in1009.1 mb 0.00 in0.0 mm 0.00 in0.0 mm 0.06 in1.5 mm
04:52 AM 34.3°F1.3°C 38.6°F3.7°C 90% Calm Calm -- 29.79 in1008.8 mb 0.00 in0.0 mm 0.00 in0.0 mm 0.06 in1.5 mm
04:55 AM 34.5°F1.4°C 38.6°F3.7°C 90% Calm Calm -- 29.79 in1008.8 mb 0.00 in0.0 mm 0.00 in0.0 mm 0.06 in1.5 mm
04:58 AM 34.4°F1.3°C 38.5°F3.6°C 90% Calm Calm -- 29.79 in1008.8 mb 0.00 in0.0 mm 0.00 in0.0 mm 0.06 in1.5 mm
05:01 AM 34.4°F1.3°C 38.4°F3.6°C 89% Calm Calm -- 29.79 in1008.8 mb 0.00 in0.0 mm 0.00 in0.0 mm 0.06 in1.5 mm
05:04 AM 34.4°F1.3°C 38.5°F3.6°C 89% Calm Calm -- 29.79 in1008.8 mb 0.00 in0.0 mm 0.00 in0.0 mm 0.06 in1.5 mm
05:07 AM 34.5°F1.4°C 38.5°F3.6°C 90% Calm Calm -- 29.79 in1008.8 mb 0.00 in0.0 mm 0.00 in0.0 mm 0.06 in1.5 mm
05:10 AM 34.4°F1.3°C 38.9°F3.8°C 90% Calm Calm -- 29.79 in1008.8 mb 0.00 in0.0 mm 0.00 in0.0 mm 0.06 in1.5 mm
05:13 AM 34.4°F1.3°C 38.5°F3.6°C 89% Calm Calm -- 29.79 in1008.8 mb 0.00 in0.0 mm 0.00 in0.0 mm 0.06 in1.5 mm
05:16 AM 34.6°F1.4°C 38.6°F3.7°C 90% Calm Calm -- 29.79 in1008.8 mb 0.00 in0.0 mm 0.00 in0.0 mm 0.06 in1.5 mm
05:19 AM 34.5°F1.4°C 38.8°F3.8°C 90% Calm Calm -- 29.79 in1008.8 mb 0.00 in0.0 mm 0.00 in0.0 mm 0.06 in1.5 mm
05:22 AM 34.5°F1.4°C 38.7°F3.7°C 90% Calm Calm -- 29.79 in1008.8 mb 0.00 in0.0 mm 0.00 in0.0 mm 0.06 in1.5 mm
05:25 AM 34.5°F1.4°C 38.7°F3.7°C 90% Calm Calm -- 29.79 in1008.8 mb 0.00 in0.0 mm 0.00 in0.0 mm 0.06 in1.5 mm
05:28 AM 34.7°F1.5°C 38.6°F3.7°C 89% 0.4 mph NNW0.6 kmh NNW 0.4 mph0.6 kmh 29.79 in1008.8 mb 0.00 in0.0 mm 0.00 in0.0 mm 0.06 in1.5 mm
05:31 AM 34.8°F1.6°C 38.7°F3.7°C 90% 0.4 mph NNW0.6 kmh NNW 0.4 mph0.6 kmh 29.79 in1008.8 mb 0.00 in0.0 mm 0.00 in0.0 mm 0.06 in1.5 mm
05:34 AM 34.7°F1.5°C 38.8°F3.8°C 90% 0.4 mph WNW0.6 kmh WNW 0.4 mph0.6 kmh 29.79 in1008.8 mb 0.00 in0.0 mm 0.00 in0.0 mm 0.06 in1.5 mm
05:37 AM 34.8°F1.6°C 38.9°F3.8°C 90% 1.6 mph NW2.6 kmh NW 1.6 mph2.6 kmh 29.79 in1008.8 mb 0.00 in0.0 mm 0.00 in0.0 mm 0.06 in1.5 mm
05:40 AM 34.9°F1.6°C 38.8°F3.8°C 90% 1.2 mph WNW1.9 kmh WNW 1.2 mph1.9 kmh 29.79 in1008.8 mb 0.00 in0.0 mm 0.00 in0.0 mm 0.06 in1.5 mm
05:43 AM 34.9°F1.6°C 38.7°F3.7°C 90% 1.2 mph WNW1.9 kmh WNW 1.2 mph1.9 kmh 29.79 in1008.8 mb 0.00 in0.0 mm 0.00 in0.0 mm 0.06 in1.5 mm
05:46 AM 34.9°F1.6°C 38.9°F3.8°C 90% 2.4 mph NNW3.9 kmh NNW 2.4 mph3.9 kmh 29.79 in1008.8 mb 0.00 in0.0 mm 0.00 in0.0 mm 0.06 in1.5 mm
05:49 AM 34.9°F1.6°C 38.7°F3.7°C 90% 2.4 mph WNW3.9 kmh WNW 2.4 mph3.9 kmh 29.79 in1008.8 mb 0.00 in0.0 mm 0.00 in0.0 mm 0.06 in1.5 mm
05:52 AM 34.9°F1.6°C 38.7°F3.7°C 90% 0.8 mph WNW1.3 kmh WNW 0.8 mph1.3 kmh 29.79 in1008.8 mb 0.00 in0.0 mm 0.00 in0.0 mm 0.06 in1.5 mm
05:55 AM 35.0°F1.7°C 39.0°F3.9°C 90% 1.2 mph NNW1.9 kmh NNW 1.2 mph1.9 kmh 29.79 in1008.8 mb 0.00 in0.0 mm 0.00 in0.0 mm 0.06 in1.5 mm
05:58 AM 35.0°F1.7°C 39.0°F3.9°C 90% Calm Calm -- 29.79 in1008.8 mb 0.00 in0.0 mm 0.00 in0.0 mm 0.06 in1.5 mm
06:01 AM 35.0°F1.7°C 38.7°F3.7°C 90% 1.2 mph 1.9 kmh 1.2 mph1.9 kmh 29.79 in1008.8 mb 0.00 in0.0 mm 0.00 in0.0 mm 0.06 in1.5 mm
06:04 AM 35.0°F1.7°C 38.9°F3.8°C 90% 0.8 mph NNW1.3 kmh NNW 0.8 mph1.3 kmh 29.79 in1008.8 mb 0.00 in0.0 mm 0.00 in0.0 mm 0.06 in1.5 mm
06:07 AM 35.0°F1.7°C 39.0°F3.9°C 90% 2.0 mph NNW3.2 kmh NNW 2.0 mph3.2 kmh 29.79 in1008.8 mb 0.00 in0.0 mm 0.00 in0.0 mm 0.06 in1.5 mm
06:10 AM 35.0°F1.7°C 39.0°F3.9°C 90% 0.4 mph NW0.6 kmh NW 0.4 mph0.6 kmh 29.79 in1008.8 mb 0.00 in0.0 mm 0.00 in0.0 mm 0.06 in1.5 mm
06:13 AM 35.0°F1.7°C 38.4°F3.6°C 89% Calm Calm -- 29.79 in1008.8 mb 0.00 in0.0 mm 0.00 in0.0 mm 0.06 in1.5 mm
06:16 AM 35.0°F1.7°C 39.1°F3.9°C 90% Calm Calm -- 29.79 in1008.8 mb 0.00 in0.0 mm 0.00 in0.0 mm 0.06 in1.5 mm
06:19 AM 35.0°F1.7°C 39.0°F3.9°C 90% 1.6 mph NW2.6 kmh NW 1.6 mph2.6 kmh 29.79 in1008.8 mb 0.00 in0.0 mm 0.00 in0.0 mm 0.06 in1.5 mm
06:22 AM 35.0°F1.7°C 39.1°F3.9°C 90% 1.2 mph NW1.9 kmh NW 1.2 mph1.9 kmh 29.79 in1008.8 mb 0.00 in0.0 mm 0.00 in0.0 mm 0.06 in1.5 mm
06:25 AM 35.2°F1.8°C 39.1°F3.9°C 90% 1.2 mph NNW1.9 kmh NNW 1.2 mph1.9 kmh 29.79 in1008.8 mb 0.00 in0.0 mm 0.00 in0.0 mm 0.06 in1.5 mm
06:28 AM 35.2°F1.8°C 39.0°F3.9°C 90% Calm Calm -- 29.80 in1009.1 mb 0.00 in0.0 mm 0.00 in0.0 mm 0.06 in1.5 mm
06:31 AM 35.2°F1.8°C 39.0°F3.9°C 90% 1.2 mph NNW1.9 kmh NNW 1.2 mph1.9 kmh 29.80 in1009.1 mb 0.00 in0.0 mm 0.00 in0.0 mm 0.06 in1.5 mm
06:34 AM 35.0°F1.7°C 39.1°F3.9°C 90% 1.2 mph NW1.9 kmh NW 1.2 mph1.9 kmh 29.80 in1009.1 mb 0.00 in0.0 mm 0.00 in0.0 mm 0.06 in1.5 mm
06:37 AM 35.2°F1.8°C 39.1°F3.9°C 90% Calm Calm -- 29.80 in1009.1 mb 0.00 in0.0 mm 0.00 in0.0 mm 0.06 in1.5 mm
06:40 AM 35.0°F1.7°C 39.0°F3.9°C 90% Calm Calm -- 29.80 in1009.1 mb 0.00 in0.0 mm 0.00 in0.0 mm 0.06 in1.5 mm
06:43 AM 35.0°F1.7°C 38.6°F3.7°C 89% Calm Calm -- 29.80 in1009.1 mb 0.00 in0.0 mm 0.00 in0.0 mm 0.06 in1.5 mm
06:46 AM 34.8°F1.6°C 38.8°F3.8°C 90% Calm Calm -- 29.80 in1009.1 mb 0.00 in0.0 mm 0.00 in0.0 mm 0.06 in1.5 mm
06:49 AM 34.6°F1.4°C 39.0°F3.9°C 90% Calm Calm -- 29.80 in1009.1 mb 0.00 in0.0 mm 0.00 in0.0 mm 0.06 in1.5 mm
06:52 AM 34.7°F1.5°C 38.9°F3.8°C 90% Calm Calm -- 29.80 in1009.1 mb 0.00 in0.0 mm 0.00 in0.0 mm 0.06 in1.5 mm
06:55 AM 34.7°F1.5°C 38.9°F3.8°C 90% Calm Calm -- 29.79 in1008.8 mb 0.00 in0.0 mm 0.00 in0.0 mm 0.06 in1.5 mm
06:58 AM 34.5°F1.4°C 38.9°F3.8°C 90% Calm Calm -- 29.80 in1009.1 mb 0.00 in0.0 mm 0.00 in0.0 mm 0.06 in1.5 mm
07:01 AM 34.1°F1.2°C 39.0°F3.9°C 89% Calm Calm -- 29.80 in1009.1 mb 0.00 in0.0 mm 0.00 in0.0 mm 0.06 in1.5 mm
07:04 AM 34.1°F1.2°C 38.9°F3.8°C 89% Calm Calm -- 29.80 in1009.1 mb 0.00 in0.0 mm 0.00 in0.0 mm 0.06 in1.5 mm
07:07 AM 33.9°F1.1°C 38.7°F3.7°C 89% Calm Calm -- 29.80 in1009.1 mb 0.00 in0.0 mm 0.00 in0.0 mm 0.06 in1.5 mm
07:11 AM 33.5°F0.8°C 38.3°F3.5°C 89% Calm Calm -- 29.80 in1009.1 mb 0.00 in0.0 mm 0.00 in0.0 mm 0.06 in1.5 mm
07:14 AM 33.5°F0.8°C 38.4°F3.6°C 89% Calm Calm -- 29.80 in1009.1 mb 0.00 in0.0 mm 0.00 in0.0 mm 0.06 in1.5 mm
07:17 AM 33.2°F0.7°C 38.2°F3.4°C 89% Calm Calm -- 29.81 in1009.5 mb 0.00 in0.0 mm 0.00 in0.0 mm 0.06 in1.5 mm
07:20 AM 33.6°F0.9°C 38.4°F3.6°C 89% Calm Calm -- 29.81 in1009.5 mb 0.00 in0.0 mm 0.00 in0.0 mm 0.06 in1.5 mm
07:23 AM 33.5°F0.8°C 38.2°F3.4°C 88% Calm Calm -- 29.81 in1009.5 mb 0.00 in0.0 mm 0.00 in0.0 mm 0.06 in1.5 mm
07:26 AM 33.5°F0.8°C 38.0°F3.3°C 88% Calm Calm -- 29.81 in1009.5 mb 0.00 in0.0 mm 0.00 in0.0 mm 0.06 in1.5 mm
07:29 AM 33.4°F0.8°C 38.3°F3.5°C 89% Calm Calm -- 29.81 in1009.5 mb 0.00 in0.0 mm 0.00 in0.0 mm 0.06 in1.5 mm
07:32 AM 33.5°F0.8°C 38.2°F3.4°C 89% Calm Calm -- 29.80 in1009.1 mb 0.00 in0.0 mm 0.00 in0.0 mm 0.06 in1.5 mm
07:35 AM 33.2°F0.7°C 38.3°F3.5°C 89% Calm Calm -- 29.80 in1009.1 mb 0.00 in0.0 mm 0.00 in0.0 mm 0.06 in1.5 mm
07:38 AM 33.4°F0.8°C 38.3°F3.5°C 89% Calm Calm -- 29.81 in1009.5 mb 0.00 in0.0 mm 0.00 in0.0 mm 0.06 in1.5 mm
07:41 AM 33.7°F0.9°C 37.7°F3.2°C 88% Calm Calm -- 29.81 in1009.5 mb 0.00 in0.0 mm 0.00 in0.0 mm 0.06 in1.5 mm
07:44 AM 33.9°F1.1°C 38.2°F3.4°C 89% Calm Calm -- 29.81 in1009.5 mb 0.00 in0.0 mm 0.00 in0.0 mm 0.06 in1.5 mm
07:47 AM 34.0°F1.1°C 38.5°F3.6°C 89% Calm Calm -- 29.81 in1009.5 mb 0.00 in0.0 mm 0.00 in0.0 mm 0.06 in1.5 mm
07:50 AM 34.1°F1.2°C 38.4°F3.6°C 89% Calm Calm -- 29.81 in1009.5 mb 0.00 in0.0 mm 0.00 in0.0 mm 0.06 in1.5 mm
07:53 AM 34.3°F1.3°C 38.3°F3.5°C 89% Calm Calm -- 29.81 in1009.5 mb 0.00 in0.0 mm 0.00 in0.0 mm 0.06 in1.5 mm
07:56 AM 34.4°F1.3°C 37.8°F3.2°C 88% Calm Calm -- 29.81 in1009.5 mb 0.00 in0.0 mm 0.00 in0.0 mm 0.06 in1.5 mm
07:59 AM 34.4°F1.3°C 38.4°F3.6°C 89% Calm Calm -- 29.81 in1009.5 mb 0.00 in0.0 mm 0.00 in0.0 mm 0.06 in1.5 mm
08:02 AM 34.1°F1.2°C 38.6°F3.7°C 90% Calm Calm -- 29.81 in1009.5 mb 0.00 in0.0 mm 0.00 in0.0 mm 0.06 in1.5 mm
08:05 AM 33.9°F1.1°C 38.4°F3.6°C 89% 0.4 mph WNW0.6 kmh WNW 0.4 mph0.6 kmh 29.81 in1009.5 mb 0.00 in0.0 mm 0.00 in0.0 mm 0.06 in1.5 mm
08:08 AM 33.7°F0.9°C 38.4°F3.6°C 90% 1.6 mph NNW2.6 kmh NNW 1.6 mph2.6 kmh 29.81 in1009.5 mb 0.00 in0.0 mm 0.00 in0.0 mm 0.06 in1.5 mm
08:11 AM 33.7°F0.9°C 38.2°F3.4°C 89% 1.6 mph W2.6 kmh W 1.6 mph2.6 kmh 29.81 in1009.5 mb 0.00 in0.0 mm 0.00 in0.0 mm 0.06 in1.5 mm
08:14 AM 33.6°F0.9°C 38.2°F3.4°C 89% Calm Calm -- 29.81 in1009.5 mb 0.00 in0.0 mm 0.00 in0.0 mm 0.06 in1.5 mm
08:17 AM 33.9°F1.1°C 38.4°F3.6°C 89% Calm Calm -- 29.81 in1009.5 mb 0.00 in0.0 mm 0.00 in0.0 mm 0.06 in1.5 mm
08:20 AM 34.4°F1.3°C 38.5°F3.6°C 90% 0.8 mph NW1.3 kmh NW 0.8 mph1.3 kmh 29.82 in1009.8 mb 0.00 in0.0 mm 0.00 in0.0 mm 0.06 in1.5 mm
08:23 AM 34.7°F1.5°C 38.5°F3.6°C 90% Calm Calm -- 29.81 in1009.5 mb 0.00 in0.0 mm 0.00 in0.0 mm 0.06 in1.5 mm
08:26 AM 34.9°F1.6°C 38.8°F3.8°C 90% 1.6 mph NNW2.6 kmh NNW 1.6 mph2.6 kmh 29.82 in1009.8 mb 0.00 in0.0 mm 0.00 in0.0 mm 0.06 in1.5 mm
08:29 AM 35.0°F1.7°C 38.7°F3.7°C 90% 0.4 mph NNW0.6 kmh NNW 0.4 mph0.6 kmh 29.81 in1009.5 mb 0.00 in0.0 mm 0.00 in0.0 mm 0.06 in1.5 mm
08:32 AM 35.0°F1.7°C 38.8°F3.8°C 90% 0.4 mph WNW0.6 kmh WNW 0.4 mph0.6 kmh 29.81 in1009.5 mb 0.00 in0.0 mm 0.00 in0.0 mm 0.06 in1.5 mm
08:35 AM 35.2°F1.8°C 38.7°F3.7°C 90% 0.8 mph NNW1.3 kmh NNW 0.8 mph1.3 kmh 29.81 in1009.5 mb 0.00 in0.0 mm 0.00 in0.0 mm 0.06 in1.5 mm
08:38 AM 35.5°F1.9°C 38.5°F3.6°C 90% Calm Calm -- 29.81 in1009.5 mb 0.00 in0.0 mm 0.00 in0.0 mm 0.06 in1.5 mm
08:41 AM 35.5°F1.9°C 38.8°F3.8°C 90% 2.8 mph NNW4.5 kmh NNW 2.8 mph4.5 kmh 29.81 in1009.5 mb 0.00 in0.0 mm 0.00 in0.0 mm 0.06 in1.5 mm
08:44 AM 35.7°F2.1°C 38.8°F3.8°C 90% 0.4 mph NW0.6 kmh NW 0.4 mph0.6 kmh 29.81 in1009.5 mb 0.00 in0.0 mm 0.00 in0.0 mm 0.06 in1.5 mm
08:47 AM 35.8°F2.1°C 39.2°F4.0°C 90% 1.6 mph WNW2.6 kmh WNW 1.6 mph2.6 kmh 29.82 in1009.8 mb 0.00 in0.0 mm 0.00 in0.0 mm 0.06 in1.5 mm
08:50 AM 35.8°F2.1°C 38.9°F3.8°C 89% 0.8 mph W1.3 kmh W 0.8 mph1.3 kmh 29.82 in1009.8 mb 0.00 in0.0 mm 0.00 in0.0 mm 0.06 in1.5 mm
08:53 AM 35.9°F2.2°C 39.3°F4.1°C 90% 0.4 mph NW0.6 kmh NW 0.4 mph0.6 kmh 29.82 in1009.8 mb 0.00 in0.0 mm 0.00 in0.0 mm 0.06 in1.5 mm
08:56 AM 36.2°F2.3°C 39.1°F3.9°C 90% 0.4 mph W0.6 kmh W 0.4 mph0.6 kmh 29.82 in1009.8 mb 0.00 in0.0 mm 0.00 in0.0 mm 0.06 in1.5 mm
08:59 AM 36.1°F2.3°C 39.2°F4.0°C 90% 1.6 mph NNW2.6 kmh NNW 1.6 mph2.6 kmh 29.82 in1009.8 mb 0.00 in0.0 mm 0.00 in0.0 mm 0.06 in1.5 mm
09:02 AM 36.1°F2.3°C 38.9°F3.8°C 89% Calm Calm -- 29.83 in1010.2 mb 0.00 in0.0 mm 0.00 in0.0 mm 0.06 in1.5 mm
09:05 AM 36.4°F2.4°C 39.3°F4.1°C 90% 0.4 mph NNW0.6 kmh NNW 0.4 mph0.6 kmh 29.82 in1009.8 mb 0.00 in0.0 mm 0.00 in0.0 mm 0.06 in1.5 mm
09:08 AM 36.6°F2.6°C 39.3°F4.1°C 90% 2.8 mph NNW4.5 kmh NNW 2.9 mph4.7 kmh 29.82 in1009.8 mb 0.00 in0.0 mm 0.00 in0.0 mm 0.06 in1.5 mm
09:11 AM 37.0°F2.8°C 39.2°F4.0°C 90% Calm Calm -- 29.82 in1009.8 mb 0.00 in0.0 mm 0.00 in0.0 mm 0.06 in1.5 mm
09:14 AM 37.1°F2.8°C 39.6°F4.2°C 90% Calm Calm -- 29.82 in1009.8 mb 0.00 in0.0 mm 0.00 in0.0 mm 0.06 in1.5 mm
09:17 AM 37.0°F2.8°C 39.7°F4.3°C 90% 2.8 mph NW4.5 kmh NW 2.9 mph4.7 kmh 29.83 in1010.2 mb 0.00 in0.0 mm 0.00 in0.0 mm 0.06 in1.5 mm
09:20 AM 36.8°F2.7°C 39.5°F4.2°C 89% 4.0 mph NW6.4 kmh NW 4.1 mph6.6 kmh 29.82 in1009.8 mb 0.00 in0.0 mm 0.00 in0.0 mm 0.06 in1.5 mm
09:23 AM 36.7°F2.6°C 39.5°F4.2°C 89% 1.6 mph NNW2.6 kmh NNW 1.6 mph2.6 kmh 29.83 in1010.2 mb 0.00 in0.0 mm 0.00 in0.0 mm 0.06 in1.5 mm
09:26 AM 36.6°F2.6°C 39.6°F4.2°C 90% 3.6 mph WSW5.8 kmh WSW 3.7 mph6.0 kmh 29.82 in1009.8 mb 0.00 in0.0 mm 0.00 in0.0 mm 0.06 in1.5 mm
09:29 AM 36.3°F2.4°C 39.4°F4.1°C 89% 3.6 mph W5.8 kmh W 3.7 mph6.0 kmh 29.82 in1009.8 mb 0.00 in0.0 mm 0.00 in0.0 mm 0.06 in1.5 mm
09:32 AM 36.3°F2.4°C 39.6°F4.2°C 89% 4.8 mph NNW7.7 kmh NNW 4.8 mph7.7 kmh 29.82 in1009.8 mb 0.00 in0.0 mm 0.00 in0.0 mm 0.06 in1.5 mm
09:35 AM 36.2°F2.3°C 39.7°F4.3°C 89% 2.0 mph NNW3.2 kmh NNW 2.0 mph3.2 kmh 29.82 in1009.8 mb 0.00 in0.0 mm 0.00 in0.0 mm 0.06 in1.5 mm
09:38 AM 36.3°F2.4°C 39.2°F4.0°C 88% 3.2 mph W5.1 kmh W 3.3 mph5.3 kmh 29.82 in1009.8 mb 0.00 in0.0 mm 0.00 in0.0 mm 0.06 in1.5 mm
09:41 AM 36.4°F2.4°C 39.2°F4.0°C 88% 4.0 mph NW6.4 kmh NW 4.0 mph6.4 kmh 29.82 in1009.8 mb 0.00 in0.0 mm 0.00 in0.0 mm 0.06 in1.5 mm
09:44 AM 36.5°F2.5°C 39.5°F4.2°C 89% 4.1 mph NW6.6 kmh NW 4.1 mph6.6 kmh 29.83 in1010.2 mb 0.00 in0.0 mm 0.00 in0.0 mm 0.06 in1.5 mm
09:47 AM 36.5°F2.5°C 39.2°F4.0°C 89% 1.2 mph NNW1.9 kmh NNW 1.2 mph1.9 kmh 29.82 in1009.8 mb 0.00 in0.0 mm 0.00 in0.0 mm 0.06 in1.5 mm
09:50 AM 36.6°F2.6°C 39.3°F4.1°C 88% 1.2 mph WNW1.9 kmh WNW 1.2 mph1.9 kmh 29.82 in1009.8 mb 0.00 in0.0 mm 0.00 in0.0 mm 0.06 in1.5 mm
09:53 AM 36.7°F2.6°C 38.9°F3.8°C 87% 1.2 mph NW1.9 kmh NW 1.2 mph1.9 kmh 29.83 in1010.2 mb 0.00 in0.0 mm 0.00 in0.0 mm 0.06 in1.5 mm
09:56 AM 36.8°F2.7°C 39.5°F4.2°C 89% 2.8 mph W4.5 kmh W 2.8 mph4.5 kmh 29.82 in1009.8 mb 0.00 in0.0 mm 0.00 in0.0 mm 0.06 in1.5 mm
09:59 AM 36.7°F2.6°C 39.5°F4.2°C 88% 1.6 mph W2.6 kmh W 1.6 mph2.6 kmh 29.82 in1009.8 mb 0.00 in0.0 mm 0.00 in0.0 mm 0.06 in1.5 mm
10:02 AM 36.6°F2.6°C 39.4°F4.1°C 88% 2.0 mph NW3.2 kmh NW 2.0 mph3.2 kmh 29.82 in1009.8 mb 0.00 in0.0 mm 0.00 in0.0 mm 0.06 in1.5 mm
10:05 AM 36.6°F2.6°C 39.4°F4.1°C 88% 1.6 mph W2.6 kmh W 1.6 mph2.6 kmh 29.83 in1010.2 mb 0.00 in0.0 mm 0.00 in0.0 mm 0.06 in1.5 mm
10:08 AM 36.5°F2.5°C 39.4°F4.1°C 88% 2.4 mph 3.9 kmh 2.5 mph4.0 kmh 29.83 in1010.2 mb 0.00 in0.0 mm 0.00 in0.0 mm 0.06 in1.5 mm
10:11 AM 36.6°F2.6°C 39.6°F4.2°C 88% 2.4 mph WNW3.9 kmh WNW 2.4 mph3.9 kmh 29.83 in1010.2 mb 0.00 in0.0 mm 0.00 in0.0 mm 0.06 in1.5 mm
10:14 AM 36.5°F2.5°C 39.3°F4.1°C 88% 2.8 mph WNW4.5 kmh WNW 2.9 mph4.7 kmh 29.83 in1010.2 mb 0.00 in0.0 mm 0.00 in0.0 mm 0.06 in1.5 mm
10:17 AM 36.5°F2.5°C 39.1°F3.9°C 87% Calm Calm -- 29.83 in1010.2 mb 0.00 in0.0 mm 0.00 in0.0 mm 0.06 in1.5 mm
10:20 AM 36.6°F2.6°C 39.4°F4.1°C 88% 3.2 mph NW5.1 kmh NW 3.2 mph5.1 kmh 29.83 in1010.2 mb 0.00 in0.0 mm 0.00 in0.0 mm 0.06 in1.5 mm
10:23 AM 36.6°F2.6°C 39.3°F4.1°C 88% 2.4 mph NW3.9 kmh NW 2.4 mph3.9 kmh 29.83 in1010.2 mb 0.00 in0.0 mm 0.00 in0.0 mm 0.06 in1.5 mm
10:26 AM 36.6°F2.6°C 39.4°F4.1°C 88% 0.8 mph NNW1.3 kmh NNW 0.8 mph1.3 kmh 29.83 in1010.2 mb 0.00 in0.0 mm 0.00 in0.0 mm 0.06 in1.5 mm
10:29 AM 36.4°F2.4°C 39.7°F4.3°C 88% 2.4 mph NW3.9 kmh NW 2.4 mph3.9 kmh 29.84 in1010.5 mb 0.00 in0.0 mm 0.00 in0.0 mm 0.06 in1.5 mm
10:32 AM 36.4°F2.4°C 39.5°F4.2°C 88% 2.4 mph NW3.9 kmh NW 2.4 mph3.9 kmh 29.83 in1010.2 mb 0.00 in0.0 mm 0.00 in0.0 mm 0.06 in1.5 mm
10:35 AM 36.5°F2.5°C 39.5°F4.2°C 88% 0.4 mph WNW0.6 kmh WNW 0.4 mph0.6 kmh 29.83 in1010.2 mb 0.00 in0.0 mm 0.00 in0.0 mm 0.06 in1.5 mm
10:41 AM 36.4°F2.4°C 39.1°F3.9°C 87% 0.4 mph NNW0.6 kmh NNW 0.4 mph0.6 kmh 29.83 in1010.2 mb 0.00 in0.0 mm 0.00 in0.0 mm 0.06 in1.5 mm
10:44 AM 36.4°F2.4°C 39.3°F4.1°C 87% Calm Calm -- 29.83 in1010.2 mb 0.00 in0.0 mm 0.00 in0.0 mm 0.06 in1.5 mm
10:47 AM 36.4°F2.4°C 39.5°F4.2°C 88% 1.2 mph NNW1.9 kmh NNW 1.2 mph1.9 kmh 29.84 in1010.5 mb 0.00 in0.0 mm 0.00 in0.0 mm 0.06 in1.5 mm
10:50 AM 36.5°F2.5°C 39.3°F4.1°C 87% 1.2 mph NW1.9 kmh NW 1.2 mph1.9 kmh 29.84 in1010.5 mb 0.00 in0.0 mm 0.00 in0.0 mm 0.06 in1.5 mm
10:53 AM 36.6°F2.6°C 39.3°F4.1°C 88% Calm Calm -- 29.84 in1010.5 mb 0.00 in0.0 mm 0.00 in0.0 mm 0.06 in1.5 mm
10:56 AM 36.6°F2.6°C 39.4°F4.1°C 88% 2.0 mph NW3.2 kmh NW 2.0 mph3.2 kmh 29.84 in1010.5 mb 0.00 in0.0 mm 0.00 in0.0 mm 0.06 in1.5 mm
10:59 AM 36.7°F2.6°C 39.4°F4.1°C 88% 2.8 mph SW4.5 kmh SW 2.9 mph4.7 kmh 29.84 in1010.5 mb 0.00 in0.0 mm 0.00 in0.0 mm 0.06 in1.5 mm
11:02 AM 36.8°F2.7°C 39.5°F4.2°C 87% 4.0 mph 6.4 kmh 4.1 mph6.6 kmh 29.84 in1010.5 mb 0.00 in0.0 mm 0.00 in0.0 mm 0.06 in1.5 mm
11:05 AM 36.6°F2.6°C 39.2°F4.0°C 88% Calm Calm -- 29.84 in1010.5 mb 0.00 in0.0 mm 0.00 in0.0 mm 0.06 in1.5 mm
11:08 AM 36.6°F2.6°C 39.3°F4.1°C 87% 5.2 mph WNW8.4 kmh WNW 5.2 mph8.4 kmh 29.84 in1010.5 mb 0.00 in0.0 mm 0.00 in0.0 mm 0.06 in1.5 mm
11:11 AM 36.6°F2.6°C 39.2°F4.0°C 87% 1.5 mph NW2.4 kmh NW 1.5 mph2.4 kmh 29.84 in1010.5 mb 0.00 in0.0 mm 0.00 in0.0 mm 0.06 in1.5 mm
11:14 AM 36.7°F2.6°C 39.4°F4.1°C 88% 4.8 mph WNW7.7 kmh WNW 4.9 mph7.9 kmh 29.84 in1010.5 mb 0.00 in0.0 mm 0.00 in0.0 mm 0.06 in1.5 mm
11:17 AM 36.8°F2.7°C 39.6°F4.2°C 88% 3.2 mph NW5.1 kmh NW 3.3 mph5.3 kmh 29.84 in1010.5 mb 0.00 in0.0 mm 0.00 in0.0 mm 0.06 in1.5 mm
11:20 AM 37.0°F2.8°C 39.5°F4.2°C 88% 4.4 mph WNW7.1 kmh WNW 4.5 mph7.2 kmh 29.84 in1010.5 mb 0.00 in0.0 mm 0.00 in0.0 mm 0.06 in1.5 mm
11:23 AM 37.1°F2.8°C 39.6°F4.2°C 87% 2.8 mph W4.5 kmh W 2.8 mph4.5 kmh 29.84 in1010.5 mb 0.00 in0.0 mm 0.00 in0.0 mm 0.06 in1.5 mm
11:26 AM 37.1°F2.8°C 39.7°F4.3°C 88% 2.4 mph W3.9 kmh W 2.4 mph3.9 kmh 29.84 in1010.5 mb 0.00 in0.0 mm 0.00 in0.0 mm 0.06 in1.5 mm
11:29 AM 37.2°F2.9°C 39.6°F4.2°C 88% 0.8 mph W1.3 kmh W 0.8 mph1.3 kmh 29.84 in1010.5 mb 0.00 in0.0 mm 0.00 in0.0 mm 0.06 in1.5 mm
11:32 AM 37.3°F2.9°C 39.8°F4.3°C 88% 2.0 mph W3.2 kmh W 2.0 mph3.2 kmh 29.84 in1010.5 mb 0.00 in0.0 mm 0.00 in0.0 mm 0.06 in1.5 mm
11:35 AM 37.2°F2.9°C 39.8°F4.3°C 88% 4.8 mph W7.7 kmh W 4.9 mph7.9 kmh 29.84 in1010.5 mb 0.00 in0.0 mm 0.00 in0.0 mm 0.06 in1.5 mm
11:41 AM 37.5°F3.1°C 39.8°F4.3°C 88% 4.8 mph NNW7.7 kmh NNW 4.8 mph7.7 kmh 29.84 in1010.5 mb 0.00 in0.0 mm 0.00 in0.0 mm 0.06 in1.5 mm
11:44 AM 37.5°F3.1°C 39.8°F4.3°C 88% 5.7 mph WNW9.2 kmh WNW 5.7 mph9.2 kmh 29.84 in1010.5 mb 0.00 in0.0 mm 0.00 in0.0 mm 0.06 in1.5 mm
11:47 AM 37.4°F3.0°C 39.5°F4.2°C 86% 2.0 mph WNW3.2 kmh WNW 2.0 mph3.2 kmh 29.84 in1010.5 mb 0.00 in0.0 mm 0.00 in0.0 mm 0.06 in1.5 mm
11:50 AM 37.4°F3.0°C 40.0°F4.4°C 87% 2.8 mph W4.5 kmh W 2.9 mph4.7 kmh 29.84 in1010.5 mb 0.00 in0.0 mm 0.00 in0.0 mm 0.06 in1.5 mm
11:53 AM 37.4°F3.0°C 39.9°F4.4°C 87% 1.6 mph NW2.6 kmh NW 1.6 mph2.6 kmh 29.84 in1010.5 mb 0.00 in0.0 mm 0.00 in0.0 mm 0.06 in1.5 mm
11:56 AM 37.3°F2.9°C 39.7°F4.3°C 87% 7.7 mph NNW12.4 kmh NNW 7.8 mph12.6 kmh 29.84 in1010.5 mb 0.00 in0.0 mm 0.00 in0.0 mm 0.06 in1.5 mm
11:59 AM 37.2°F2.9°C 39.7°F4.3°C 87% 4.8 mph NNW7.7 kmh NNW 4.9 mph7.9 kmh 29.84 in1010.5 mb 0.00 in0.0 mm 0.00 in0.0 mm 0.06 in1.5 mm
12:02 PM 37.2°F2.9°C 39.6°F4.2°C 87% 4.8 mph NW7.7 kmh NW 4.9 mph7.9 kmh 29.84 in1010.5 mb 0.00 in0.0 mm 0.00 in0.0 mm 0.06 in1.5 mm
12:05 PM 37.2°F2.9°C 39.6°F4.2°C 87% 2.8 mph WNW4.5 kmh WNW 2.8 mph4.5 kmh 29.84 in1010.5 mb 0.00 in0.0 mm 0.00 in0.0 mm 0.06 in1.5 mm
12:08 PM 37.3°F2.9°C 39.9°F4.4°C 87% 3.6 mph SW5.8 kmh SW 3.6 mph5.8 kmh 29.84 in1010.5 mb 0.00 in0.0 mm 0.00 in0.0 mm 0.06 in1.5 mm
12:11 PM 37.2°F2.9°C 39.6°F4.2°C 87% 3.6 mph NW5.8 kmh NW 3.7 mph6.0 kmh 29.84 in1010.5 mb 0.00 in0.0 mm 0.00 in0.0 mm 0.06 in1.5 mm
12:14 PM 37.3°F2.9°C 39.9°F4.4°C 87% 1.2 mph 1.9 kmh 1.2 mph1.9 kmh 29.84 in1010.5 mb 0.00 in0.0 mm 0.00 in0.0 mm 0.06 in1.5 mm
12:17 PM 37.2°F2.9°C 39.9°F4.4°C 87% 5.3 mph NNW8.5 kmh NNW 5.3 mph8.5 kmh 29.84 in1010.5 mb 0.00 in0.0 mm 0.00 in0.0 mm 0.06 in1.5 mm
12:20 PM 37.2°F2.9°C 39.9°F4.4°C 87% 0.4 mph W0.6 kmh W 0.4 mph0.6 kmh 29.84 in1010.5 mb 0.00 in0.0 mm 0.00 in0.0 mm 0.06 in1.5 mm
12:23 PM 37.2°F2.9°C 39.5°F4.2°C 86% 2.8 mph NW4.5 kmh NW 2.9 mph4.7 kmh 29.84 in1010.5 mb 0.00 in0.0 mm 0.00 in0.0 mm 0.06 in1.5 mm
12:26 PM 37.2°F2.9°C 39.7°F4.3°C 87% 1.2 mph W1.9 kmh W 1.2 mph1.9 kmh 29.84 in1010.5 mb 0.00 in0.0 mm 0.00 in0.0 mm 0.06 in1.5 mm
12:29 PM 37.2°F2.9°C 39.9°F4.4°C 88% 1.2 mph W1.9 kmh W 1.2 mph1.9 kmh 29.84 in1010.5 mb 0.00 in0.0 mm 0.00 in0.0 mm 0.06 in1.5 mm
12:32 PM 37.2°F2.9°C 39.9°F4.4°C 87% 1.6 mph W2.6 kmh W 1.6 mph2.6 kmh 29.84 in1010.5 mb 0.00 in0.0 mm 0.00 in0.0 mm 0.06 in1.5 mm
12:35 PM 37.3°F2.9°C 40.0°F4.4°C 87% 4.4 mph W7.1 kmh W 4.4 mph7.1 kmh 29.84 in1010.5 mb 0.00 in0.0 mm 0.00 in0.0 mm 0.06 in1.5 mm
12:38 PM 37.5°F3.1°C 40.2°F4.6°C 88% 2.4 mph NNW3.9 kmh NNW 2.4 mph3.9 kmh 29.84 in1010.5 mb 0.00 in0.0 mm 0.00 in0.0 mm 0.06 in1.5 mm
12:41 PM 37.6°F3.1°C 40.0°F4.4°C 88% 4.8 mph W7.7 kmh W 4.8 mph7.7 kmh 29.84 in1010.5 mb 0.00 in0.0 mm 0.00 in0.0 mm 0.06 in1.5 mm
12:44 PM 37.5°F3.1°C 40.1°F4.5°C 88% 2.0 mph WNW3.2 kmh WNW 2.0 mph3.2 kmh 29.84 in1010.5 mb 0.00 in0.0 mm 0.00 in0.0 mm 0.06 in1.5 mm
12:47 PM 37.6°F3.1°C 40.0°F4.4°C 88% 6.7 mph NW10.8 kmh NW 6.8 mph10.9 kmh 29.84 in1010.5 mb 0.00 in0.0 mm 0.00 in0.0 mm 0.06 in1.5 mm
12:50 PM 37.6°F3.1°C 40.0°F4.4°C 87% 4.8 mph WNW7.7 kmh WNW 4.8 mph7.7 kmh 29.84 in1010.5 mb 0.00 in0.0 mm 0.00 in0.0 mm 0.06 in1.5 mm
12:53 PM 37.5°F3.1°C 40.0°F4.4°C 87% 2.4 mph NW3.9 kmh NW 2.4 mph3.9 kmh 29.84 in1010.5 mb 0.00 in0.0 mm 0.00 in0.0 mm 0.06 in1.5 mm
12:56 PM 37.5°F3.1°C 40.1°F4.5°C 88% 2.8 mph NW4.5 kmh NW 2.9 mph4.7 kmh 29.84 in1010.5 mb 0.00 in0.0 mm 0.00 in0.0 mm 0.06 in1.5 mm
12:59 PM 37.6°F3.1°C 40.2°F4.6°C 88% 2.8 mph NW4.5 kmh NW 2.9 mph4.7 kmh 29.84 in1010.5 mb 0.00 in0.0 mm 0.00 in0.0 mm 0.06 in1.5 mm
01:02 PM 37.6°F3.1°C 40.1°F4.5°C 87% 1.6 mph NW2.6 kmh NW 1.6 mph2.6 kmh 29.84 in1010.5 mb 0.00 in0.0 mm 0.00 in0.0 mm 0.06 in1.5 mm
01:05 PM 37.6°F3.1°C 40.4°F4.7°C 87% Calm Calm -- 29.84 in1010.5 mb 0.00 in0.0 mm 0.00 in0.0 mm 0.06 in1.5 mm
01:08 PM 37.5°F3.1°C 40.2°F4.6°C 87% 3.2 mph NNW5.1 kmh NNW 3.3 mph5.3 kmh 29.84 in1010.5 mb 0.00 in0.0 mm 0.00 in0.0 mm 0.06 in1.5 mm
01:11 PM 37.5°F3.1°C 40.2°F4.6°C 87% 7.7 mph NNW12.4 kmh NNW 7.7 mph12.4 kmh 29.84 in1010.5 mb 0.00 in0.0 mm 0.00 in0.0 mm 0.06 in1.5 mm
01:14 PM 37.6°F3.1°C 40.2°F4.6°C 87% 2.8 mph NW4.5 kmh NW 2.9 mph4.7 kmh 29.84 in1010.5 mb 0.00 in0.0 mm 0.00 in0.0 mm 0.06 in1.5 mm
01:17 PM 37.6°F3.1°C 40.1°F4.5°C 87% 4.0 mph 6.4 kmh 4.0 mph6.4 kmh 29.84 in1010.5 mb 0.00 in0.0 mm 0.00 in0.0 mm 0.06 in1.5 mm
01:20 PM 37.6°F3.1°C 40.3°F4.6°C 87% Calm Calm -- 29.84 in1010.5 mb 0.00 in0.0 mm 0.00 in0.0 mm 0.06 in1.5 mm
01:23 PM 37.7°F3.2°C 40.1°F4.5°C 87% 6.4 mph NNW10.3 kmh NNW 6.4 mph10.3 kmh 29.84 in1010.5 mb 0.00 in0.0 mm 0.00 in0.0 mm 0.06 in1.5 mm
01:26 PM 37.9°F3.3°C 40.1°F4.5°C 87% 2.4 mph NW3.9 kmh NW 2.4 mph3.9 kmh 29.84 in1010.5 mb 0.00 in0.0 mm 0.00 in0.0 mm 0.06 in1.5 mm
01:29 PM 37.9°F3.3°C 40.0°F4.4°C 86% 0.8 mph 1.3 kmh 0.8 mph1.3 kmh 29.84 in1010.5 mb 0.00 in0.0 mm 0.00 in0.0 mm 0.06 in1.5 mm
01:32 PM 37.9°F3.3°C 40.3°F4.6°C 87% 4.8 mph NW7.7 kmh NW 4.9 mph7.9 kmh 29.84 in1010.5 mb 0.00 in0.0 mm 0.00 in0.0 mm 0.06 in1.5 mm
01:35 PM 37.9°F3.3°C 40.3°F4.6°C 87% Calm Calm -- 29.84 in1010.5 mb 0.00 in0.0 mm 0.00 in0.0 mm 0.06 in1.5 mm
01:38 PM 38.0°F3.3°C 40.4°F4.7°C 87% Calm Calm -- 29.84 in1010.5 mb 0.00 in0.0 mm 0.00 in0.0 mm 0.06 in1.5 mm
01:41 PM 38.0°F3.3°C 40.3°F4.6°C 87% 1.6 mph NNW2.6 kmh NNW 1.6 mph2.6 kmh 29.84 in1010.5 mb 0.00 in0.0 mm 0.00 in0.0 mm 0.06 in1.5 mm
01:44 PM 38.0°F3.3°C 40.4°F4.7°C 87% 2.0 mph W3.2 kmh W 2.0 mph3.2 kmh 29.84 in1010.5 mb 0.00 in0.0 mm 0.00 in0.0 mm 0.06 in1.5 mm
01:47 PM 38.0°F3.3°C 40.5°F4.7°C 87% 1.2 mph NW1.9 kmh NW 1.2 mph1.9 kmh 29.84 in1010.5 mb 0.00 in0.0 mm 0.00 in0.0 mm 0.06 in1.5 mm
01:50 PM 38.0°F3.3°C 40.0°F4.4°C 86% 1.6 mph NNW2.6 kmh NNW 1.6 mph2.6 kmh 29.84 in1010.5 mb 0.00 in0.0 mm 0.00 in0.0 mm 0.06 in1.5 mm
01:53 PM 38.0°F3.3°C 40.2°F4.6°C 86% 6.1 mph W9.8 kmh W 6.1 mph9.8 kmh 29.84 in1010.5 mb 0.00 in0.0 mm 0.00 in0.0 mm 0.06 in1.5 mm
01:56 PM 38.0°F3.3°C 40.5°F4.7°C 86% Calm Calm -- 29.84 in1010.5 mb 0.00 in0.0 mm 0.00 in0.0 mm 0.06 in1.5 mm
01:59 PM 38.0°F3.3°C 40.1°F4.5°C 86% 0.4 mph NW0.6 kmh NW 0.4 mph0.6 kmh 29.84 in1010.5 mb 0.00 in0.0 mm 0.00 in0.0 mm 0.06 in1.5 mm
02:02 PM 38.0°F3.3°C 40.9°F4.9°C 87% 2.4 mph NW3.9 kmh NW 2.4 mph3.9 kmh 29.84 in1010.5 mb 0.00 in0.0 mm 0.00 in0.0 mm 0.06 in1.5 mm
02:05 PM 38.1°F3.4°C 40.4°F4.7°C 86% 1.2 mph W1.9 kmh W 1.2 mph1.9 kmh 29.84 in1010.5 mb 0.00 in0.0 mm 0.00 in0.0 mm 0.06 in1.5 mm
02:08 PM 38.2°F3.4°C 40.5°F4.7°C 86% 1.2 mph NW1.9 kmh NW 1.2 mph1.9 kmh 29.84 in1010.5 mb 0.00 in0.0 mm 0.00 in0.0 mm 0.06 in1.5 mm
02:11 PM 38.2°F3.4°C 40.3°F4.6°C 86% 2.8 mph NNW4.5 kmh NNW 2.9 mph4.7 kmh 29.84 in1010.5 mb 0.00 in0.0 mm 0.00 in0.0 mm 0.06 in1.5 mm
02:14 PM 38.2°F3.4°C 40.4°F4.7°C 86% 3.2 mph W5.1 kmh W 3.2 mph5.1 kmh 29.84 in1010.5 mb 0.00 in0.0 mm 0.00 in0.0 mm 0.06 in1.5 mm
02:17 PM 38.3°F3.5°C 40.0°F4.4°C 85% 3.6 mph NW5.8 kmh NW 3.7 mph6.0 kmh 29.84 in1010.5 mb 0.00 in0.0 mm 0.00 in0.0 mm 0.06 in1.5 mm
02:20 PM 38.2°F3.4°C 40.1°F4.5°C 85% 4.0 mph NNW6.4 kmh NNW 4.1 mph6.6 kmh 29.84 in1010.5 mb 0.00 in0.0 mm 0.00 in0.0 mm 0.06 in1.5 mm
02:23 PM 38.2°F3.4°C 40.2°F4.6°C 85% 4.4 mph W7.1 kmh W 4.4 mph7.1 kmh 29.84 in1010.5 mb 0.00 in0.0 mm 0.00 in0.0 mm 0.06 in1.5 mm
02:26 PM 38.2°F3.4°C 40.5°F4.7°C 86% 4.9 mph NNW7.9 kmh NNW 4.9 mph7.9 kmh 29.84 in1010.5 mb 0.00 in0.0 mm 0.00 in0.0 mm 0.06 in1.5 mm
02:29 PM 38.2°F3.4°C 40.2°F4.6°C 86% 7.2 mph NNW11.6 kmh NNW 7.2 mph11.6 kmh 29.84 in1010.5 mb 0.00 in0.0 mm 0.00 in0.0 mm 0.06 in1.5 mm
02:32 PM 38.2°F3.4°C 40.4°F4.7°C 86% 1.6 mph W2.6 kmh W 1.6 mph2.6 kmh 29.84 in1010.5 mb 0.00 in0.0 mm 0.00 in0.0 mm 0.06 in1.5 mm
02:35 PM 38.1°F3.4°C 40.4°F4.7°C 86% 4.9 mph WNW7.9 kmh WNW 4.9 mph7.9 kmh 29.84 in1010.5 mb 0.00 in0.0 mm 0.00 in0.0 mm 0.06 in1.5 mm
02:38 PM 38.2°F3.4°C 39.9°F4.4°C 85% 2.8 mph NW4.5 kmh NW 2.8 mph4.5 kmh 29.84 in1010.5 mb 0.00 in0.0 mm 0.00 in0.0 mm 0.06 in1.5 mm
02:41 PM 38.1°F3.4°C 40.4°F4.7°C 86% 4.0 mph WNW6.4 kmh WNW 4.0 mph6.4 kmh 29.84 in1010.5 mb 0.00 in0.0 mm 0.00 in0.0 mm 0.06 in1.5 mm
02:44 PM 38.1°F3.4°C 40.2°F4.6°C 86% 2.0 mph NW3.2 kmh NW 2.0 mph3.2 kmh 29.84 in1010.5 mb 0.00 in0.0 mm 0.00 in0.0 mm 0.06 in1.5 mm
02:47 PM 38.1°F3.4°C 40.4°F4.7°C 86% 1.6 mph NW2.6 kmh NW 1.6 mph2.6 kmh 29.84 in1010.5 mb 0.00 in0.0 mm 0.00 in0.0 mm 0.06 in1.5 mm
02:50 PM 38.0°F3.3°C 40.3°F4.6°C 86% 4.0 mph NW6.4 kmh NW 4.1 mph6.6 kmh 29.84 in1010.5 mb 0.00 in0.0 mm 0.00 in0.0 mm 0.06 in1.5 mm
02:53 PM 37.9°F3.3°C 40.0°F4.4°C 85% 6.1 mph NNW9.8 kmh NNW 6.1 mph9.8 kmh 29.84 in1010.5 mb 0.00 in0.0 mm 0.00 in0.0 mm 0.06 in1.5 mm
02:56 PM 37.9°F3.3°C 40.5°F4.7°C 86% 3.6 mph NNW5.8 kmh NNW 3.7 mph6.0 kmh 29.84 in1010.5 mb 0.00 in0.0 mm 0.00 in0.0 mm 0.06 in1.5 mm
02:59 PM 37.7°F3.2°C 40.4°F4.7°C 86% 2.0 mph NNW3.2 kmh NNW 2.0 mph3.2 kmh 29.84 in1010.5 mb 0.00 in0.0 mm 0.00 in0.0 mm 0.06 in1.5 mm
03:02 PM 37.7°F3.2°C 40.2°F4.6°C 87% 3.2 mph 5.1 kmh 3.3 mph5.3 kmh 29.84 in1010.5 mb 0.00 in0.0 mm 0.00 in0.0 mm 0.06 in1.5 mm
03:05 PM 37.7°F3.2°C 40.6°F4.8°C 87% 4.0 mph NNW6.4 kmh NNW 4.1 mph6.6 kmh 29.84 in1010.5 mb 0.00 in0.0 mm 0.00 in0.0 mm 0.06 in1.5 mm
03:08 PM 37.5°F3.1°C 40.6°F4.8°C 87% 3.2 mph 5.1 kmh 3.2 mph5.1 kmh 29.85 in1010.8 mb 0.00 in0.0 mm 0.00 in0.0 mm 0.08 in2.0 mm
03:11 PM 37.5°F3.1°C 40.6°F4.8°C 87% 3.6 mph 5.8 kmh 3.6 mph5.8 kmh 29.84 in1010.5 mb 0.00 in0.0 mm 0.00 in0.0 mm 0.08 in2.0 mm
03:14 PM 37.3°F2.9°C 40.4°F4.7°C 87% 0.8 mph NNW1.3 kmh NNW 0.8 mph1.3 kmh 29.85 in1010.8 mb 0.00 in0.0 mm 0.00 in0.0 mm 0.08 in2.0 mm
03:17 PM 37.2°F2.9°C 40.6°F4.8°C 88% 2.4 mph 3.9 kmh 2.4 mph3.9 kmh 29.86 in1011.2 mb 0.00 in0.0 mm 0.00 in0.0 mm 0.08 in2.0 mm
03:20 PM 37.1°F2.8°C 40.8°F4.9°C 88% 2.0 mph NNW3.2 kmh NNW 2.0 mph3.2 kmh 29.86 in1011.2 mb 0.00 in0.0 mm 0.00 in0.0 mm 0.10 in2.5 mm
03:23 PM 37.1°F2.8°C 40.7°F4.8°C 88% 1.6 mph 2.6 kmh 1.6 mph2.6 kmh 29.86 in1011.2 mb 0.00 in0.0 mm 0.00 in0.0 mm 0.10 in2.5 mm
03:26 PM 36.8°F2.7°C 40.3°F4.6°C 88% 4.8 mph NNW7.7 kmh NNW 4.8 mph7.7 kmh 29.86 in1011.2 mb 0.00 in0.0 mm 0.00 in0.0 mm 0.10 in2.5 mm
03:29 PM 36.7°F2.6°C 40.3°F4.6°C 88% 1.2 mph NNW1.9 kmh NNW 1.2 mph1.9 kmh 29.86 in1011.2 mb 0.00 in0.0 mm 0.00 in0.0 mm 0.10 in2.5 mm
03:32 PM 36.6°F2.6°C 40.5°F4.7°C 88% 4.0 mph NNW6.4 kmh NNW 4.0 mph6.4 kmh 29.86 in1011.2 mb 0.00 in0.0 mm 0.00 in0.0 mm 0.10 in2.5 mm
03:35 PM 36.5°F2.5°C 40.5°F4.7°C 88% 4.0 mph 6.4 kmh 4.0 mph6.4 kmh 29.86 in1011.2 mb 0.00 in0.0 mm 0.00 in0.0 mm 0.10 in2.5 mm
03:38 PM 36.5°F2.5°C 40.2°F4.6°C 88% 2.0 mph 3.2 kmh 2.0 mph3.2 kmh 29.86 in1011.2 mb 0.00 in0.0 mm 0.00 in0.0 mm 0.10 in2.5 mm
03:41 PM 36.6°F2.6°C 40.3°F4.6°C 88% Calm Calm -- 29.86 in1011.2 mb 0.00 in0.0 mm 0.00 in0.0 mm 0.10 in2.5 mm
03:44 PM 36.7°F2.6°C 40.5°F4.7°C 88% 2.4 mph NNW3.9 kmh NNW 2.4 mph3.9 kmh 29.86 in1011.2 mb 0.00 in0.0 mm 0.00 in0.0 mm 0.10 in2.5 mm
03:47 PM 36.8°F2.7°C 40.0°F4.4°C 87% 2.0 mph NW3.2 kmh NW 2.0 mph3.2 kmh 29.86 in1011.2 mb 0.00 in0.0 mm 0.00 in0.0 mm 0.10 in2.5 mm
03:50 PM 36.8°F2.7°C 40.4°F4.7°C 88% Calm Calm -- 29.86 in1011.2 mb 0.00 in0.0 mm 0.00 in0.0 mm 0.10 in2.5 mm
03:53 PM 37.0°F2.8°C 40.6°F4.8°C 88% 2.4 mph NW3.9 kmh NW 2.4 mph3.9 kmh 29.86 in1011.2 mb 0.00 in0.0 mm 0.00 in0.0 mm 0.10 in2.5 mm
03:56 PM 37.1°F2.8°C 40.5°F4.7°C 88% 3.6 mph NW5.8 kmh NW 3.7 mph6.0 kmh 29.86 in1011.2 mb 0.00 in0.0 mm 0.00 in0.0 mm 0.10 in2.5 mm
03:59 PM 37.1°F2.8°C 40.5°F4.7°C 88% 4.0 mph NNW6.4 kmh NNW 4.1 mph6.6 kmh 29.86 in1011.2 mb 0.00 in0.0 mm 0.00 in0.0 mm 0.10 in2.5 mm
04:05 PM 37.1°F2.8°C 40.6°F4.8°C 88% 0.8 mph NNW1.3 kmh NNW 0.8 mph1.3 kmh 29.86 in1011.2 mb 0.00 in0.0 mm 0.00 in0.0 mm 0.12 in3.0 mm
04:08 PM 37.1°F2.8°C 40.6°F4.8°C 88% 1.6 mph WNW2.6 kmh WNW 1.6 mph2.6 kmh 29.86 in1011.2 mb 0.00 in0.0 mm 0.00 in0.0 mm 0.12 in3.0 mm
04:11 PM 37.2°F2.9°C 40.4°F4.7°C 88% 1.6 mph NNW2.6 kmh NNW 1.6 mph2.6 kmh 29.86 in1011.2 mb 0.00 in0.0 mm 0.00 in0.0 mm 0.12 in3.0 mm
04:14 PM 37.1°F2.8°C 40.8°F4.9°C 89% 3.6 mph NNW5.8 kmh NNW 3.7 mph6.0 kmh 29.86 in1011.2 mb 0.00 in0.0 mm 0.00 in0.0 mm 0.12 in3.0 mm
04:17 PM 37.1°F2.8°C 40.6°F4.8°C 89% 2.0 mph NNW3.2 kmh NNW 2.0 mph3.2 kmh 29.86 in1011.2 mb 0.00 in0.0 mm 0.00 in0.0 mm 0.12 in3.0 mm
04:20 PM 37.0°F2.8°C 40.6°F4.8°C 88% 0.4 mph NNE0.6 kmh NNE 0.4 mph0.6 kmh 29.86 in1011.2 mb 0.00 in0.0 mm 0.00 in0.0 mm 0.12 in3.0 mm
04:23 PM 37.0°F2.8°C 40.1°F4.5°C 88% Calm Calm -- 29.86 in1011.2 mb 0.00 in0.0 mm 0.00 in0.0 mm 0.12 in3.0 mm
04:26 PM 37.0°F2.8°C 40.5°F4.7°C 88% Calm Calm -- 29.86 in1011.2 mb 0.00 in0.0 mm 0.00 in0.0 mm 0.12 in3.0 mm
04:29 PM 37.0°F2.8°C 40.6°F4.8°C 88% 0.4 mph 0.6 kmh 0.4 mph0.6 kmh 29.86 in1011.2 mb 0.00 in0.0 mm 0.00 in0.0 mm 0.12 in3.0 mm
04:32 PM 37.1°F2.8°C 40.6°F4.8°C 88% 2.4 mph 3.9 kmh 2.4 mph3.9 kmh 29.86 in1011.2 mb 0.00 in0.0 mm 0.00 in0.0 mm 0.12 in3.0 mm
04:35 PM 37.1°F2.8°C 40.6°F4.8°C 88% 1.6 mph NNW2.6 kmh NNW 1.6 mph2.6 kmh 29.86 in1011.2 mb 0.00 in0.0 mm 0.00 in0.0 mm 0.12 in3.0 mm
04:38 PM 37.1°F2.8°C 40.8°F4.9°C 89% 1.2 mph 1.9 kmh 1.2 mph1.9 kmh 29.86 in1011.2 mb 0.00 in0.0 mm 0.00 in0.0 mm 0.12 in3.0 mm
04:41 PM 37.2°F2.9°C 40.8°F4.9°C 89% 3.6 mph 5.8 kmh 3.6 mph5.8 kmh 29.86 in1011.2 mb 0.00 in0.0 mm 0.00 in0.0 mm 0.12 in3.0 mm
04:44 PM 37.2°F2.9°C 40.6°F4.8°C 89% Calm Calm -- 29.86 in1011.2 mb 0.00 in0.0 mm 0.00 in0.0 mm 0.12 in3.0 mm
04:47 PM 37.1°F2.8°C 40.6°F4.8°C 88% Calm Calm -- 29.86 in1011.2 mb 0.00 in0.0 mm 0.00 in0.0 mm 0.12 in3.0 mm
04:50 PM 37.2°F2.9°C 40.7°F4.8°C 89% 0.4 mph 0.6 kmh 0.4 mph0.6 kmh 29.86 in1011.2 mb 0.00 in0.0 mm 0.00 in0.0 mm 0.12 in3.0 mm
04:53 PM 37.3°F2.9°C 40.7°F4.8°C 89% 1.2 mph 1.9 kmh 1.2 mph1.9 kmh 29.86 in1011.2 mb 0.00 in0.0 mm 0.00 in0.0 mm 0.12 in3.0 mm
04:56 PM 37.3°F2.9°C 40.7°F4.8°C 89% 2.0 mph NNW3.2 kmh NNW 2.0 mph3.2 kmh 29.86 in1011.2 mb 0.00 in0.0 mm 0.00 in0.0 mm 0.12 in3.0 mm
04:59 PM 37.3°F2.9°C 40.7°F4.8°C 89% Calm Calm -- 29.86 in1011.2 mb 0.00 in0.0 mm 0.00 in0.0 mm 0.12 in3.0 mm
05:02 PM 37.3°F2.9°C 40.3°F4.6°C 87% 1.6 mph NW2.6 kmh NW 1.6 mph2.6 kmh 29.86 in1011.2 mb 0.00 in0.0 mm 0.00 in0.0 mm 0.12 in3.0 mm
05:05 PM 37.3°F2.9°C 40.7°F4.8°C 88% 3.2 mph NNW5.1 kmh NNW 3.3 mph5.3 kmh 29.86 in1011.2 mb 0.00 in0.0 mm 0.00 in0.0 mm 0.12 in3.0 mm
05:08 PM 37.3°F2.9°C 40.9°F4.9°C 89% 1.2 mph 1.9 kmh 1.2 mph1.9 kmh 29.86 in1011.2 mb 0.00 in0.0 mm 0.00 in0.0 mm 0.12 in3.0 mm
05:11 PM 37.4°F3.0°C 40.7°F4.8°C 89% 1.6 mph 2.6 kmh 1.6 mph2.6 kmh 29.86 in1011.2 mb 0.00 in0.0 mm 0.00 in0.0 mm 0.12 in3.0 mm
05:14 PM 37.4°F3.0°C 40.4°F4.7°C 88% 0.4 mph 0.6 kmh 0.4 mph0.6 kmh 29.86 in1011.2 mb 0.00 in0.0 mm 0.00 in0.0 mm 0.12 in3.0 mm
05:17 PM 37.4°F3.0°C 40.8°F4.9°C 89% 4.8 mph 7.7 kmh 4.9 mph7.9 kmh 29.86 in1011.2 mb 0.00 in0.0 mm 0.00 in0.0 mm 0.12 in3.0 mm
05:20 PM 37.4°F3.0°C 40.7°F4.8°C 89% 2.4 mph NNW3.9 kmh NNW 2.4 mph3.9 kmh 29.86 in1011.2 mb 0.00 in0.0 mm 0.00 in0.0 mm 0.12 in3.0 mm
05:23 PM 37.3°F2.9°C 41.1°F5.1°C 89% 2.4 mph NW3.9 kmh NW 2.4 mph3.9 kmh 29.86 in1011.2 mb 0.00 in0.0 mm 0.00 in0.0 mm 0.12 in3.0 mm
05:26 PM 37.5°F3.1°C 40.8°F4.9°C 89% 4.8 mph 7.7 kmh 4.9 mph7.9 kmh 29.86 in1011.2 mb 0.00 in0.0 mm 0.00 in0.0 mm 0.12 in3.0 mm
05:29 PM 37.5°F3.1°C 40.9°F4.9°C 89% 1.6 mph 2.6 kmh 1.6 mph2.6 kmh 29.86 in1011.2 mb 0.00 in0.0 mm 0.00 in0.0 mm 0.12 in3.0 mm
05:32 PM 37.4°F3.0°C 40.7°F4.8°C 89% 2.4 mph NNW3.9 kmh NNW 2.4 mph3.9 kmh 29.86 in1011.2 mb 0.00 in0.0 mm 0.00 in0.0 mm 0.12 in3.0 mm
05:35 PM 37.4°F3.0°C 40.9°F4.9°C 89% 2.8 mph NW4.5 kmh NW 2.9 mph4.7 kmh 29.86 in1011.2 mb 0.00 in0.0 mm 0.00 in0.0 mm 0.12 in3.0 mm
05:38 PM 37.3°F2.9°C 40.8°F4.9°C 89% 2.0 mph WNW3.2 kmh WNW 2.0 mph3.2 kmh 29.86 in1011.2 mb 0.00 in0.0 mm 0.00 in0.0 mm 0.12 in3.0 mm
05:41 PM 37.4°F3.0°C 40.6°F4.8°C 88% 1.6 mph NNW2.6 kmh NNW 1.6 mph2.6 kmh 29.86 in1011.2 mb 0.00 in0.0 mm 0.00 in0.0 mm 0.12 in3.0 mm
05:44 PM 37.6°F3.1°C 40.5°F4.7°C 88% 3.2 mph NNW5.1 kmh NNW 3.3 mph5.3 kmh 29.87 in1011.5 mb 0.00 in0.0 mm 0.00 in0.0 mm 0.12 in3.0 mm
05:47 PM 37.6°F3.1°C 40.7°F4.8°C 88% 6.1 mph NNW9.8 kmh NNW 6.1 mph9.8 kmh 29.86 in1011.2 mb 0.00 in0.0 mm 0.00 in0.0 mm 0.12 in3.0 mm
05:50 PM 37.7°F3.2°C 40.5°F4.7°C 87% 5.3 mph 8.5 kmh 5.3 mph8.5 kmh 29.86 in1011.2 mb 0.00 in0.0 mm 0.00 in0.0 mm 0.12 in3.0 mm
05:53 PM 37.7°F3.2°C 40.9°F4.9°C 89% 5.2 mph NNW8.4 kmh NNW 5.3 mph8.5 kmh 29.87 in1011.5 mb 0.00 in0.0 mm 0.00 in0.0 mm 0.12 in3.0 mm
05:56 PM 37.6°F3.1°C 40.8°F4.9°C 89% 4.8 mph NNW7.7 kmh NNW 4.9 mph7.9 kmh 29.87 in1011.5 mb 0.00 in0.0 mm 0.00 in0.0 mm 0.12 in3.0 mm
05:59 PM 37.6°F3.1°C 40.8°F4.9°C 89% 1.6 mph NNW2.6 kmh NNW 1.6 mph2.6 kmh 29.87 in1011.5 mb 0.00 in0.0 mm 0.00 in0.0 mm 0.12 in3.0 mm
06:02 PM 37.5°F3.1°C 40.7°F4.8°C 88% 5.6 mph NNW9.0 kmh NNW 5.6 mph9.0 kmh 29.87 in1011.5 mb 0.00 in0.0 mm 0.00 in0.0 mm 0.12 in3.0 mm
06:05 PM 37.6°F3.1°C 40.7°F4.8°C 88% 2.4 mph NNW3.9 kmh NNW 2.4 mph3.9 kmh 29.87 in1011.5 mb 0.00 in0.0 mm 0.00 in0.0 mm 0.12 in3.0 mm
06:08 PM 37.6°F3.1°C 40.6°F4.8°C 88% Calm Calm -- 29.87 in1011.5 mb 0.00 in0.0 mm 0.00 in0.0 mm 0.12 in3.0 mm
06:11 PM 37.5°F3.1°C 40.5°F4.7°C 88% 0.8 mph 1.3 kmh 0.8 mph1.3 kmh 29.87 in1011.5 mb 0.00 in0.0 mm 0.00 in0.0 mm 0.12 in3.0 mm
06:14 PM 37.7°F3.2°C 40.7°F4.8°C 88% 0.8 mph 1.3 kmh 0.8 mph1.3 kmh 29.87 in1011.5 mb 0.00 in0.0 mm 0.00 in0.0 mm 0.12 in3.0 mm
06:17 PM 37.6°F3.1°C 40.8°F4.9°C 88% 2.0 mph NNW3.2 kmh NNW 2.0 mph3.2 kmh 29.87 in1011.5 mb 0.00 in0.0 mm 0.00 in0.0 mm 0.12 in3.0 mm
06:20 PM 37.6°F3.1°C 40.8°F4.9°C 88% 3.2 mph NE5.1 kmh NE 3.3 mph5.3 kmh 29.88 in1011.9 mb 0.00 in0.0 mm 0.00 in0.0 mm 0.12 in3.0 mm
06:23 PM 37.7°F3.2°C 40.9°F4.9°C 88% 3.6 mph NNW5.8 kmh NNW 3.7 mph6.0 kmh 29.88 in1011.9 mb 0.00 in0.0 mm 0.00 in0.0 mm 0.12 in3.0 mm
06:29 PM 37.5°F3.1°C 40.6°F4.8°C 87% 2.0 mph NW3.2 kmh NW 2.0 mph3.2 kmh 29.89 in1012.2 mb 0.00 in0.0 mm 0.00 in0.0 mm 0.12 in3.0 mm
06:32 PM 37.5°F3.1°C 40.7°F4.8°C 88% Calm Calm -- 29.89 in1012.2 mb 0.00 in0.0 mm 0.00 in0.0 mm 0.12 in3.0 mm
06:35 PM 37.5°F3.1°C 40.8°F4.9°C 88% 2.8 mph NW4.5 kmh NW 2.8 mph4.5 kmh 29.89 in1012.2 mb 0.00 in0.0 mm 0.00 in0.0 mm 0.12 in3.0 mm
06:38 PM 37.7°F3.2°C 40.6°F4.8°C 88% 2.8 mph 4.5 kmh 2.9 mph4.7 kmh 29.89 in1012.2 mb 0.00 in0.0 mm 0.00 in0.0 mm 0.12 in3.0 mm
06:41 PM 37.5°F3.1°C 40.6°F4.8°C 88% Calm Calm -- 29.89 in1012.2 mb 0.00 in0.0 mm 0.00 in0.0 mm 0.12 in3.0 mm
06:44 PM 37.4°F3.0°C 40.4°F4.7°C 87% 2.4 mph NNW3.9 kmh NNW 2.4 mph3.9 kmh 29.89 in1012.2 mb 0.00 in0.0 mm 0.00 in0.0 mm 0.12 in3.0 mm
06:47 PM 37.4°F3.0°C 40.7°F4.8°C 88% 4.0 mph NW6.4 kmh NW 4.1 mph6.6 kmh 29.89 in1012.2 mb 0.00 in0.0 mm 0.00 in0.0 mm 0.12 in3.0 mm
06:50 PM 37.4°F3.0°C 40.7°F4.8°C 88% 3.2 mph NW5.1 kmh NW 3.3 mph5.3 kmh 29.89 in1012.2 mb 0.00 in0.0 mm 0.00 in0.0 mm 0.12 in3.0 mm
06:53 PM 37.5°F3.1°C 40.5°F4.7°C 87% 1.6 mph NNW2.6 kmh NNW 1.6 mph2.6 kmh 29.89 in1012.2 mb 0.00 in0.0 mm 0.00 in0.0 mm 0.12 in3.0 mm
06:56 PM 37.4°F3.0°C 40.8°F4.9°C 87% 4.0 mph NW6.4 kmh NW 4.0 mph6.4 kmh 29.89 in1012.2 mb 0.00 in0.0 mm 0.00 in0.0 mm 0.12 in3.0 mm
06:59 PM 37.3°F2.9°C 40.7°F4.8°C 88% 0.8 mph WNW1.3 kmh WNW 0.8 mph1.3 kmh 29.89 in1012.2 mb 0.00 in0.0 mm 0.00 in0.0 mm 0.12 in3.0 mm
07:02 PM 37.4°F3.0°C 40.4°F4.7°C 87% 0.8 mph WNW1.3 kmh WNW 0.8 mph1.3 kmh 29.89 in1012.2 mb 0.00 in0.0 mm 0.00 in0.0 mm 0.12 in3.0 mm
07:05 PM 37.4°F3.0°C 40.4°F4.7°C 88% 3.6 mph NNW5.8 kmh NNW 3.7 mph6.0 kmh 29.89 in1012.2 mb 0.00 in0.0 mm 0.00 in0.0 mm 0.12 in3.0 mm
07:08 PM 37.4°F3.0°C 40.5°F4.7°C 87% 4.4 mph NNW7.1 kmh NNW 4.5 mph7.2 kmh 29.89 in1012.2 mb 0.00 in0.0 mm 0.00 in0.0 mm 0.12 in3.0 mm
07:11 PM 37.4°F3.0°C 40.2°F4.6°C 86% 4.4 mph NW7.1 kmh NW 4.5 mph7.2 kmh 29.89 in1012.2 mb 0.00 in0.0 mm 0.00 in0.0 mm 0.12 in3.0 mm
07:14 PM 37.3°F2.9°C 40.4°F4.7°C 87% 2.0 mph NNW3.2 kmh NNW 2.0 mph3.2 kmh 29.89 in1012.2 mb 0.00 in0.0 mm 0.00 in0.0 mm 0.12 in3.0 mm
07:20 PM 37.4°F3.0°C 40.4°F4.7°C 87% 5.2 mph WSW8.4 kmh WSW 5.2 mph8.4 kmh 29.89 in1012.2 mb 0.00 in0.0 mm 0.00 in0.0 mm 0.12 in3.0 mm
07:23 PM 37.4°F3.0°C 40.3°F4.6°C 87% 0.4 mph NNW0.6 kmh NNW 0.4 mph0.6 kmh 29.89 in1012.2 mb 0.00 in0.0 mm 0.00 in0.0 mm 0.12 in3.0 mm
07:26 PM 37.4°F3.0°C 40.5°F4.7°C 87% 1.2 mph 1.9 kmh 1.2 mph1.9 kmh 29.89 in1012.2 mb 0.00 in0.0 mm 0.00 in0.0 mm 0.12 in3.0 mm
07:29 PM 37.4°F3.0°C 40.3°F4.6°C 87% 0.4 mph 0.6 kmh 0.4 mph0.6 kmh 29.89 in1012.2 mb 0.00 in0.0 mm 0.00 in0.0 mm 0.12 in3.0 mm
07:32 PM 37.3°F2.9°C 40.4°F4.7°C 87% Calm Calm -- 29.89 in1012.2 mb 0.00 in0.0 mm 0.00 in0.0 mm 0.12 in3.0 mm
07:35 PM 37.3°F2.9°C 40.4°F4.7°C 87% 0.8 mph NW1.3 kmh NW 0.8 mph1.3 kmh 29.90 in1012.5 mb 0.00 in0.0 mm 0.00 in0.0 mm 0.12 in3.0 mm
07:38 PM 37.3°F2.9°C 40.4°F4.7°C 87% 0.8 mph NNW1.3 kmh NNW 0.8 mph1.3 kmh 29.90 in1012.5 mb 0.00 in0.0 mm 0.00 in0.0 mm 0.12 in3.0 mm
07:41 PM 37.3°F2.9°C 40.6°F4.8°C 87% 1.6 mph NNW2.6 kmh NNW 1.6 mph2.6 kmh 29.90 in1012.5 mb 0.00 in0.0 mm 0.00 in0.0 mm 0.12 in3.0 mm
07:44 PM 37.4°F3.0°C 40.6°F4.8°C 87% 1.2 mph 1.9 kmh 1.2 mph1.9 kmh 29.90 in1012.5 mb 0.00 in0.0 mm 0.00 in0.0 mm 0.12 in3.0 mm
07:47 PM 37.4°F3.0°C 40.4°F4.7°C 87% 0.4 mph NW0.6 kmh NW 0.4 mph0.6 kmh 29.90 in1012.5 mb 0.00 in0.0 mm 0.00 in0.0 mm 0.12 in3.0 mm
07:50 PM 37.4°F3.0°C 40.4°F4.7°C 87% 3.6 mph NNW5.8 kmh NNW 3.7 mph6.0 kmh 29.90 in1012.5 mb 0.00 in0.0 mm 0.00 in0.0 mm 0.12 in3.0 mm
07:53 PM 37.4°F3.0°C 40.3°F4.6°C 87% 3.2 mph NW5.1 kmh NW 3.2 mph5.1 kmh 29.90 in1012.5 mb 0.00 in0.0 mm 0.00 in0.0 mm 0.12 in3.0 mm
07:56 PM 37.3°F2.9°C 40.4°F4.7°C 87% Calm Calm -- 29.90 in1012.5 mb 0.00 in0.0 mm 0.00 in0.0 mm 0.12 in3.0 mm
07:59 PM 37.3°F2.9°C 40.4°F4.7°C 87% Calm Calm -- 29.90 in1012.5 mb 0.00 in0.0 mm 0.00 in0.0 mm 0.12 in3.0 mm
08:02 PM 37.2°F2.9°C 40.0°F4.4°C 86% Calm Calm -- 29.90 in1012.5 mb 0.00 in0.0 mm 0.00 in0.0 mm 0.12 in3.0 mm
08:08 PM 37.2°F2.9°C 40.2°F4.6°C 87% Calm Calm -- 29.91 in1012.9 mb 0.00 in0.0 mm 0.00 in0.0 mm 0.12 in3.0 mm
08:11 PM 37.3°F2.9°C 40.3°F4.6°C 87% 2.4 mph WNW3.9 kmh WNW 2.4 mph3.9 kmh 29.91 in1012.9 mb 0.00 in0.0 mm 0.00 in0.0 mm 0.12 in3.0 mm
08:14 PM 37.5°F3.1°C 40.6°F4.8°C 87% 2.0 mph WNW3.2 kmh WNW 2.0 mph3.2 kmh 29.91 in1012.9 mb 0.00 in0.0 mm 0.00 in0.0 mm 0.12 in3.0 mm
08:17 PM 37.4°F3.0°C 40.7°F4.8°C 87% 1.2 mph NW1.9 kmh NW 1.2 mph1.9 kmh 29.91 in1012.9 mb 0.00 in0.0 mm 0.00 in0.0 mm 0.12 in3.0 mm
08:20 PM 37.3°F2.9°C 40.4°F4.7°C 87% Calm Calm -- 29.91 in1012.9 mb 0.00 in0.0 mm 0.00 in0.0 mm 0.12 in3.0 mm
08:23 PM 37.4°F3.0°C 40.4°F4.7°C 87% Calm Calm -- 29.91 in1012.9 mb 0.00 in0.0 mm 0.00 in0.0 mm 0.12 in3.0 mm
08:26 PM 37.3°F2.9°C 40.4°F4.7°C 87% 1.6 mph NNW2.6 kmh NNW 1.6 mph2.6 kmh 29.91 in1012.9 mb 0.00 in0.0 mm 0.00 in0.0 mm 0.12 in3.0 mm
08:29 PM 37.2°F2.9°C 40.2°F4.6°C 87% Calm Calm -- 29.91 in1012.9 mb 0.00 in0.0 mm 0.00 in0.0 mm 0.12 in3.0 mm
08:32 PM 37.1°F2.8°C 40.4°F4.7°C 87% Calm Calm -- 29.91 in1012.9 mb 0.00 in0.0 mm 0.00 in0.0 mm 0.12 in3.0 mm
08:35 PM 37.1°F2.8°C 40.5°F4.7°C 87% Calm Calm -- 29.91 in1012.9 mb 0.00 in0.0 mm 0.00 in0.0 mm 0.12 in3.0 mm
08:38 PM 37.1°F2.8°C 40.0°F4.4°C 86% Calm Calm -- 29.91 in1012.9 mb 0.00 in0.0 mm 0.00 in0.0 mm 0.12 in3.0 mm
08:41 PM 37.1°F2.8°C 40.2°F4.6°C 87% 0.4 mph W0.6 kmh W 0.4 mph0.6 kmh 29.92 in1013.2 mb 0.00 in0.0 mm 0.00 in0.0 mm 0.12 in3.0 mm
08:44 PM 37.1°F2.8°C 40.3°F4.6°C 87% 2.4 mph W3.9 kmh W 2.5 mph4.0 kmh 29.91 in1012.9 mb 0.00 in0.0 mm 0.00 in0.0 mm 0.12 in3.0 mm
08:47 PM 37.2°F2.9°C 40.6°F4.8°C 87% 3.6 mph W5.8 kmh W 3.7 mph6.0 kmh 29.91 in1012.9 mb 0.00 in0.0 mm 0.00 in0.0 mm 0.12 in3.0 mm
08:50 PM 37.2°F2.9°C 40.4°F4.7°C 87% 4.0 mph NW6.4 kmh NW 4.0 mph6.4 kmh 29.91 in1012.9 mb 0.00 in0.0 mm 0.00 in0.0 mm 0.12 in3.0 mm
08:53 PM 37.2°F2.9°C 40.3°F4.6°C 87% 2.0 mph NW3.2 kmh NW 2.0 mph3.2 kmh 29.91 in1012.9 mb 0.00 in0.0 mm 0.00 in0.0 mm 0.12 in3.0 mm
08:56 PM 37.3°F2.9°C 40.4°F4.7°C 87% 0.4 mph NNW0.6 kmh NNW 0.4 mph0.6 kmh 29.91 in1012.9 mb 0.00 in0.0 mm 0.00 in0.0 mm 0.12 in3.0 mm
08:59 PM 37.2°F2.9°C 40.5°F4.7°C 87% Calm Calm -- 29.92 in1013.2 mb 0.00 in0.0 mm 0.00 in0.0 mm 0.12 in3.0 mm
09:02 PM 37.2°F2.9°C 40.3°F4.6°C 87% 4.0 mph WNW6.4 kmh WNW 4.1 mph6.6 kmh 29.91 in1012.9 mb 0.00 in0.0 mm 0.00 in0.0 mm 0.12 in3.0 mm
09:05 PM 37.3°F2.9°C 40.5°F4.7°C 87% 2.4 mph WNW3.9 kmh WNW 2.4 mph3.9 kmh 29.91 in1012.9 mb 0.00 in0.0 mm 0.00 in0.0 mm 0.12 in3.0 mm
09:08 PM 37.3°F2.9°C 40.3°F4.6°C 87% 4.0 mph WNW6.4 kmh WNW 4.0 mph6.4 kmh 29.92 in1013.2 mb 0.00 in0.0 mm 0.00 in0.0 mm 0.12 in3.0 mm
09:11 PM 37.3°F2.9°C 40.6°F4.8°C 87% 1.6 mph WNW2.6 kmh WNW 1.6 mph2.6 kmh 29.91 in1012.9 mb 0.00 in0.0 mm 0.00 in0.0 mm 0.12 in3.0 mm
09:14 PM 37.3°F2.9°C 40.2°F4.6°C 87% 0.8 mph W1.3 kmh W 0.8 mph1.3 kmh 29.92 in1013.2 mb 0.00 in0.0 mm 0.00 in0.0 mm 0.12 in3.0 mm
09:17 PM 37.2°F2.9°C 40.4°F4.7°C 87% 2.0 mph NNW3.2 kmh NNW 2.0 mph3.2 kmh 29.92 in1013.2 mb 0.00 in0.0 mm 0.00 in0.0 mm 0.12 in3.0 mm
09:20 PM 37.3°F2.9°C 40.1°F4.5°C 87% 2.4 mph NNW3.9 kmh NNW 2.4 mph3.9 kmh 29.92 in1013.2 mb 0.00 in0.0 mm 0.00 in0.0 mm 0.12 in3.0 mm
09:23 PM 37.3°F2.9°C 40.3°F4.6°C 87% 2.8 mph W4.5 kmh W 2.9 mph4.7 kmh 29.92 in1013.2 mb 0.00 in0.0 mm 0.00 in0.0 mm 0.12 in3.0 mm
09:26 PM 37.4°F3.0°C 40.3°F4.6°C 87% Calm Calm -- 29.93 in1013.5 mb 0.00 in0.0 mm 0.00 in0.0 mm 0.12 in3.0 mm
09:29 PM 37.3°F2.9°C 40.4°F4.7°C 87% 1.2 mph W1.9 kmh W 1.2 mph1.9 kmh 29.93 in1013.5 mb 0.00 in0.0 mm 0.00 in0.0 mm 0.12 in3.0 mm
09:32 PM 37.4°F3.0°C 40.3°F4.6°C 87% 2.4 mph NW3.9 kmh NW 2.4 mph3.9 kmh 29.93 in1013.5 mb 0.00 in0.0 mm 0.00 in0.0 mm 0.12 in3.0 mm
09:35 PM 37.3°F2.9°C 40.2°F4.6°C 87% 0.4 mph NW0.6 kmh NW 0.4 mph0.6 kmh 29.93 in1013.5 mb 0.00 in0.0 mm 0.00 in0.0 mm 0.12 in3.0 mm
09:38 PM 37.4°F3.0°C 40.2°F4.6°C 86% 3.6 mph NW5.8 kmh NW 3.6 mph5.8 kmh 29.93 in1013.5 mb 0.00 in0.0 mm 0.00 in0.0 mm 0.12 in3.0 mm
09:41 PM 37.5°F3.1°C 40.4°F4.7°C 87% 1.6 mph NNW2.6 kmh NNW 1.6 mph2.6 kmh 29.93 in1013.5 mb 0.00 in0.0 mm 0.00 in0.0 mm 0.12 in3.0 mm
09:44 PM 37.6°F3.1°C 40.2°F4.6°C 87% 2.0 mph NW3.2 kmh NW 2.0 mph3.2 kmh 29.93 in1013.5 mb 0.00 in0.0 mm 0.00 in0.0 mm 0.12 in3.0 mm
09:47 PM 37.6°F3.1°C 40.5°F4.7°C 87% 2.0 mph NW3.2 kmh NW 2.0 mph3.2 kmh 29.93 in1013.5 mb 0.00 in0.0 mm 0.00 in0.0 mm 0.12 in3.0 mm
09:50 PM 37.4°F3.0°C 40.5°F4.7°C 87% 2.0 mph NNW3.2 kmh NNW 2.0 mph3.2 kmh 29.93 in1013.5 mb 0.00 in0.0 mm 0.00 in0.0 mm 0.12 in3.0 mm
09:53 PM 37.5°F3.1°C 40.2°F4.6°C 86% 1.6 mph NNW2.6 kmh NNW 1.6 mph2.6 kmh 29.93 in1013.5 mb 0.00 in0.0 mm 0.00 in0.0 mm 0.12 in3.0 mm
09:56 PM 37.4°F3.0°C 40.3°F4.6°C 87% 2.0 mph NNW3.2 kmh NNW 2.0 mph3.2 kmh 29.93 in1013.5 mb 0.00 in0.0 mm 0.00 in0.0 mm 0.12 in3.0 mm
09:59 PM 37.5°F3.1°C 40.5°F4.7°C 86% 3.6 mph NW5.8 kmh NW 3.6 mph5.8 kmh 29.93 in1013.5 mb 0.00 in0.0 mm 0.00 in0.0 mm 0.12 in3.0 mm
10:02 PM 37.5°F3.1°C 40.2°F4.6°C 86% 2.0 mph W3.2 kmh W 2.0 mph3.2 kmh 29.93 in1013.5 mb 0.00 in0.0 mm 0.00 in0.0 mm 0.12 in3.0 mm
10:05 PM 37.6°F3.1°C 40.2°F4.6°C 86% 2.4 mph NNW3.9 kmh NNW 2.4 mph3.9 kmh 29.94 in1013.9 mb 0.00 in0.0 mm 0.00 in0.0 mm 0.12 in3.0 mm
10:08 PM 37.6°F3.1°C 40.1°F4.5°C 86% 2.0 mph NNW3.2 kmh NNW 2.0 mph3.2 kmh 29.93 in1013.5 mb 0.00 in0.0 mm 0.00 in0.0 mm 0.12 in3.0 mm
10:11 PM 37.9°F3.3°C 39.8°F4.3°C 86% 4.0 mph NW6.4 kmh NW 4.1 mph6.6 kmh 29.94 in1013.9 mb 0.00 in0.0 mm 0.00 in0.0 mm 0.12 in3.0 mm
10:14 PM 37.7°F3.2°C 40.0°F4.4°C 86% 5.6 mph NNW9.0 kmh NNW 5.6 mph9.0 kmh 29.94 in1013.9 mb 0.00 in0.0 mm 0.00 in0.0 mm 0.12 in3.0 mm
10:17 PM 37.7°F3.2°C 40.1°F4.5°C 86% 3.6 mph NNW5.8 kmh NNW 3.7 mph6.0 kmh 29.94 in1013.9 mb 0.00 in0.0 mm 0.00 in0.0 mm 0.12 in3.0 mm
10:20 PM 37.7°F3.2°C 40.0°F4.4°C 86% 2.8 mph NW4.5 kmh NW 2.8 mph4.5 kmh 29.94 in1013.9 mb 0.00 in0.0 mm 0.00 in0.0 mm 0.12 in3.0 mm
10:23 PM 37.7°F3.2°C 40.0°F4.4°C 86% 4.8 mph NNW7.7 kmh NNW 4.8 mph7.7 kmh 29.94 in1013.9 mb 0.00 in0.0 mm 0.00 in0.0 mm 0.12 in3.0 mm
10:26 PM 37.7°F3.2°C 39.9°F4.4°C 86% 7.7 mph NW12.4 kmh NW 7.7 mph12.4 kmh 29.94 in1013.9 mb 0.00 in0.0 mm 0.00 in0.0 mm 0.12 in3.0 mm
10:29 PM 37.6°F3.1°C 40.1°F4.5°C 86% 7.7 mph WNW12.4 kmh WNW 7.8 mph12.6 kmh 29.94 in1013.9 mb 0.00 in0.0 mm 0.00 in0.0 mm 0.12 in3.0 mm
10:32 PM 37.7°F3.2°C 40.0°F4.4°C 86% 8.4 mph NW13.5 kmh NW 8.4 mph13.5 kmh 29.94 in1013.9 mb 0.00 in0.0 mm 0.00 in0.0 mm 0.12 in3.0 mm
10:35 PM 37.9°F3.3°C 39.8°F4.3°C 85% 2.0 mph NNW3.2 kmh NNW 2.0 mph3.2 kmh 29.94 in1013.9 mb 0.00 in0.0 mm 0.00 in0.0 mm 0.12 in3.0 mm
10:38 PM 37.7°F3.2°C 40.1°F4.5°C 85% 4.4 mph NW7.1 kmh NW 4.5 mph7.2 kmh 29.94 in1013.9 mb 0.00 in0.0 mm 0.00 in0.0 mm 0.12 in3.0 mm
10:41 PM 37.9°F3.3°C 39.5°F4.2°C 84% 2.8 mph 4.5 kmh 2.9 mph4.7 kmh 29.94 in1013.9 mb 0.00 in0.0 mm 0.00 in0.0 mm 0.12 in3.0 mm
10:44 PM 37.6°F3.1°C 40.2°F4.6°C 85% 0.8 mph NNW1.3 kmh NNW 0.8 mph1.3 kmh 29.94 in1013.9 mb 0.00 in0.0 mm 0.00 in0.0 mm 0.12 in3.0 mm
10:47 PM 37.6°F3.1°C 39.9°F4.4°C 85% 2.0 mph NNW3.2 kmh NNW 2.0 mph3.2 kmh 29.94 in1013.9 mb 0.00 in0.0 mm 0.00 in0.0 mm 0.12 in3.0 mm
10:50 PM 37.7°F3.2°C 40.0°F4.4°C 85% 2.4 mph NW3.9 kmh NW 2.4 mph3.9 kmh 29.94 in1013.9 mb 0.00 in0.0 mm 0.00 in0.0 mm 0.12 in3.0 mm
10:53 PM 37.5°F3.1°C 39.9°F4.4°C 85% 4.8 mph NNW7.7 kmh NNW 4.8 mph7.7 kmh 29.94 in1013.9 mb 0.00 in0.0 mm 0.00 in0.0 mm 0.12 in3.0 mm
10:56 PM 37.6°F3.1°C 39.8°F4.3°C 85% 3.2 mph WNW5.1 kmh WNW 3.3 mph5.3 kmh 29.95 in1014.2 mb 0.00 in0.0 mm 0.00 in0.0 mm 0.12 in3.0 mm
10:59 PM 37.6°F3.1°C 39.7°F4.3°C 85% 4.8 mph WNW7.7 kmh WNW 4.8 mph7.7 kmh 29.94 in1013.9 mb 0.00 in0.0 mm 0.00 in0.0 mm 0.12 in3.0 mm
11:02 PM 37.6°F3.1°C 39.9°F4.4°C 85% 4.8 mph WSW7.7 kmh WSW 4.8 mph7.7 kmh 29.94 in1013.9 mb 0.00 in0.0 mm 0.00 in0.0 mm 0.12 in3.0 mm
11:05 PM 37.6°F3.1°C 39.8°F4.3°C 85% 3.6 mph NNW5.8 kmh NNW 3.7 mph6.0 kmh 29.95 in1014.2 mb 0.00 in0.0 mm 0.00 in0.0 mm 0.12 in3.0 mm
11:08 PM 37.7°F3.2°C 39.8°F4.3°C 85% 6.0 mph NW9.7 kmh NW 6.0 mph9.7 kmh 29.94 in1013.9 mb 0.00 in0.0 mm 0.00 in0.0 mm 0.12 in3.0 mm
11:11 PM 37.7°F3.2°C 39.6°F4.2°C 85% 2.4 mph NNW3.9 kmh NNW 2.4 mph3.9 kmh 29.94 in1013.9 mb 0.00 in0.0 mm 0.00 in0.0 mm 0.12 in3.0 mm
11:14 PM 37.5°F3.1°C 39.7°F4.3°C 85% 4.4 mph NW7.1 kmh NW 4.5 mph7.2 kmh 29.95 in1014.2 mb 0.00 in0.0 mm 0.00 in0.0 mm 0.12 in3.0 mm
11:17 PM 37.6°F3.1°C 39.7°F4.3°C 85% 3.6 mph NW5.8 kmh NW 3.7 mph6.0 kmh 29.94 in1013.9 mb 0.00 in0.0 mm 0.00 in0.0 mm 0.12 in3.0 mm
11:20 PM 37.9°F3.3°C 39.6°F4.2°C 85% 3.2 mph NW5.1 kmh NW 3.2 mph5.1 kmh 29.95 in1014.2 mb 0.00 in0.0 mm 0.00 in0.0 mm 0.12 in3.0 mm
11:23 PM 37.6°F3.1°C 39.5°F4.2°C 84% 2.8 mph WNW4.5 kmh WNW 2.9 mph4.7 kmh 29.96 in1014.6 mb 0.00 in0.0 mm 0.00 in0.0 mm 0.12 in3.0 mm
11:26 PM 37.6°F3.1°C 39.9°F4.4°C 85% 3.2 mph NNW5.1 kmh NNW 3.3 mph5.3 kmh 29.95 in1014.2 mb 0.00 in0.0 mm 0.00 in0.0 mm 0.12 in3.0 mm
11:29 PM 37.6°F3.1°C 39.5°F4.2°C 84% 2.0 mph WNW3.2 kmh WNW 2.0 mph3.2 kmh 29.95 in1014.2 mb 0.00 in0.0 mm 0.00 in0.0 mm 0.12 in3.0 mm
11:32 PM 37.7°F3.2°C 39.6°F4.2°C 84% 5.7 mph NW9.2 kmh NW 5.7 mph9.2 kmh 29.95 in1014.2 mb 0.00 in0.0 mm 0.00 in0.0 mm 0.12 in3.0 mm
11:35 PM 37.6°F3.1°C 39.1°F3.9°C 83% 1.2 mph NNW1.9 kmh NNW 1.2 mph1.9 kmh 29.95 in1014.2 mb 0.00 in0.0 mm 0.00 in0.0 mm 0.12 in3.0 mm
11:38 PM 37.9°F3.3°C 39.4°F4.1°C 83% 3.2 mph NW5.1 kmh NW 3.2 mph5.1 kmh 29.95 in1014.2 mb 0.00 in0.0 mm 0.00 in0.0 mm 0.12 in3.0 mm
11:41 PM 37.7°F3.2°C 39.6°F4.2°C 84% 4.0 mph NNW6.4 kmh NNW 4.1 mph6.6 kmh 29.95 in1014.2 mb 0.00 in0.0 mm 0.00 in0.0 mm 0.12 in3.0 mm
11:44 PM 37.6°F3.1°C 39.5°F4.2°C 84% Calm Calm -- 29.95 in1014.2 mb 0.00 in0.0 mm 0.00 in0.0 mm 0.12 in3.0 mm
11:47 PM 37.6°F3.1°C 39.6°F4.2°C 84% 2.0 mph 3.2 kmh 2.0 mph3.2 kmh 29.95 in1014.2 mb 0.00 in0.0 mm 0.00 in0.0 mm 0.12 in3.0 mm
11:50 PM 37.6°F3.1°C 39.7°F4.3°C 84% 4.8 mph NW7.7 kmh NW 4.9 mph7.9 kmh 29.96 in1014.6 mb 0.00 in0.0 mm 0.00 in0.0 mm 0.12 in3.0 mm
11:53 PM 37.6°F3.1°C 39.4°F4.1°C 84% 6.0 mph NW9.7 kmh NW 6.0 mph9.7 kmh 29.96 in1014.6 mb 0.00 in0.0 mm 0.00 in0.0 mm 0.12 in3.0 mm
11:56 PM 37.9°F3.3°C 39.7°F4.3°C 84% 4.0 mph NW6.4 kmh NW 4.0 mph6.4 kmh 29.96 in1014.6 mb 0.00 in0.0 mm 0.00 in0.0 mm 0.12 in3.0 mm
11:59 PM 38.0°F3.3°C 39.1°F3.9°C 84% 6.9 mph 11.1 kmh 6.9 mph11.1 kmh 29.96 in1014.6 mb 0.00 in0.0 mm 0.00 in0.0 mm 0.12 in3.0 mm